<?xml version="1.0" encoding="UTF-8"?>
<gpx version="1.1" creator="https://www.youtrack.es" xsi:schemaLocation="http://www.topografix.com/GPX/1/1 http://www.topografix.com/GPX/1/1/gpx.xsd http://www.garmin.com/xmlschemas/GpxExtensions/v3 http://www.garmin.com/xmlschemas/GpxExtensionsv3.xsd http://www.garmin.com/xmlschemas/TrackPointExtension/v1 http://www.garmin.com/xmlschemas/TrackPointExtensionv1.xsd" xmlns:gpxtpx="http://www.garmin.com/xmlschemas/TrackPointExtension/v1" xmlns:gpxx="http://www.garmin.com/xmlschemas/GpxExtensions/v3" xmlns:xsi="http://www.w3.org/2001/XMLSchema-instance">
  <metadata>
    <link href="https://www.youtrack.es">
      <text>YouTrack.es</text>
    </link>
    <time>2026-05-08T04:33:20Z</time>
  </metadata>
  <trk>
    <src>https://www.youtrack.es</src>
    <link href="https://www.youtrack.es/ruta/6779-underground-marathon">
      <text>YouTrack.es</text>
    </link>
    <trkseg>
      <trkpt lat="39.668118" lon="-0.346777">
        <ele>171.064</ele>
        <time>2019-07-10T13:47:05Z</time>
      </trkpt>
      <trkpt lat="39.668267" lon="-0.348322">
        <ele>176.606</ele>
        <time>2019-07-10T13:47:25Z</time>
      </trkpt>
      <trkpt lat="39.668415" lon="-0.349181">
        <ele>188.316</ele>
        <time>2019-07-10T13:47:45Z</time>
      </trkpt>
      <trkpt lat="39.668845" lon="-0.349460">
        <ele>191.808</ele>
        <time>2019-07-10T13:48:05Z</time>
      </trkpt>
      <trkpt lat="39.667821" lon="-0.350254">
        <ele>198.339</ele>
        <time>2019-07-10T13:48:25Z</time>
      </trkpt>
      <trkpt lat="39.667408" lon="-0.350232">
        <ele>192.874</ele>
        <time>2019-07-10T13:48:45Z</time>
      </trkpt>
      <trkpt lat="39.667045" lon="-0.350940">
        <ele>199.431</ele>
        <time>2019-07-10T13:49:05Z</time>
      </trkpt>
      <trkpt lat="39.666747" lon="-0.351906">
        <ele>208.287</ele>
        <time>2019-07-10T13:49:25Z</time>
      </trkpt>
      <trkpt lat="39.666400" lon="-0.351627">
        <ele>208.163</ele>
        <time>2019-07-10T13:49:45Z</time>
      </trkpt>
      <trkpt lat="39.665789" lon="-0.351670">
        <ele>211.442</ele>
        <time>2019-07-10T13:50:05Z</time>
      </trkpt>
      <trkpt lat="39.665492" lon="-0.351863">
        <ele>214.942</ele>
        <time>2019-07-10T13:50:25Z</time>
      </trkpt>
      <trkpt lat="39.665145" lon="-0.351648">
        <ele>219.813</ele>
        <time>2019-07-10T13:50:45Z</time>
      </trkpt>
      <trkpt lat="39.664897" lon="-0.351648">
        <ele>223.355</ele>
        <time>2019-07-10T13:51:05Z</time>
      </trkpt>
      <trkpt lat="39.664583" lon="-0.351348">
        <ele>224.207</ele>
        <time>2019-07-10T13:51:25Z</time>
      </trkpt>
      <trkpt lat="39.664418" lon="-0.351155">
        <ele>222.717</ele>
        <time>2019-07-10T13:51:45Z</time>
      </trkpt>
      <trkpt lat="39.663691" lon="-0.351005">
        <ele>219.608</ele>
        <time>2019-07-10T13:52:05Z</time>
      </trkpt>
      <trkpt lat="39.663295" lon="-0.350919">
        <ele>216.588</ele>
        <time>2019-07-10T13:52:25Z</time>
      </trkpt>
      <trkpt lat="39.662552" lon="-0.351198">
        <ele>221.453</ele>
        <time>2019-07-10T13:52:45Z</time>
      </trkpt>
      <trkpt lat="39.661940" lon="-0.350833">
        <ele>217.040</ele>
        <time>2019-07-10T13:53:05Z</time>
      </trkpt>
      <trkpt lat="39.660685" lon="-0.351026">
        <ele>214.516</ele>
        <time>2019-07-10T13:53:25Z</time>
      </trkpt>
      <trkpt lat="39.660602" lon="-0.351348">
        <ele>216.262</ele>
        <time>2019-07-10T13:53:45Z</time>
      </trkpt>
      <trkpt lat="39.660900" lon="-0.351756">
        <ele>221.851</ele>
        <time>2019-07-10T13:54:05Z</time>
      </trkpt>
      <trkpt lat="39.660735" lon="-0.353773">
        <ele>237.531</ele>
        <time>2019-07-10T13:54:25Z</time>
      </trkpt>
      <trkpt lat="39.660685" lon="-0.354116">
        <ele>237.122</ele>
        <time>2019-07-10T13:54:45Z</time>
      </trkpt>
      <trkpt lat="39.660718" lon="-0.354738">
        <ele>239.556</ele>
        <time>2019-07-10T13:55:05Z</time>
      </trkpt>
      <trkpt lat="39.660817" lon="-0.355146">
        <ele>248.159</ele>
        <time>2019-07-10T13:55:25Z</time>
      </trkpt>
      <trkpt lat="39.660635" lon="-0.355361">
        <ele>246.814</ele>
        <time>2019-07-10T13:55:45Z</time>
      </trkpt>
      <trkpt lat="39.659925" lon="-0.356734">
        <ele>264.708</ele>
        <time>2019-07-10T13:56:05Z</time>
      </trkpt>
      <trkpt lat="39.659149" lon="-0.357077">
        <ele>266.488</ele>
        <time>2019-07-10T13:56:25Z</time>
      </trkpt>
      <trkpt lat="39.658703" lon="-0.357420">
        <ele>270.713</ele>
        <time>2019-07-10T13:56:45Z</time>
      </trkpt>
      <trkpt lat="39.658538" lon="-0.357828">
        <ele>271.190</ele>
        <time>2019-07-10T13:57:05Z</time>
      </trkpt>
      <trkpt lat="39.659215" lon="-0.358601">
        <ele>277.396</ele>
        <time>2019-07-10T13:57:25Z</time>
      </trkpt>
      <trkpt lat="39.660536" lon="-0.359137">
        <ele>300.442</ele>
        <time>2019-07-10T13:57:45Z</time>
      </trkpt>
      <trkpt lat="39.661164" lon="-0.358837">
        <ele>312.311</ele>
        <time>2019-07-10T13:58:05Z</time>
      </trkpt>
      <trkpt lat="39.662238" lon="-0.359309">
        <ele>322.081</ele>
        <time>2019-07-10T13:58:25Z</time>
      </trkpt>
      <trkpt lat="39.662849" lon="-0.359244">
        <ele>317.532</ele>
        <time>2019-07-10T13:58:45Z</time>
      </trkpt>
      <trkpt lat="39.663857" lon="-0.358558">
        <ele>330.012</ele>
        <time>2019-07-10T13:59:05Z</time>
      </trkpt>
      <trkpt lat="39.664732" lon="-0.358515">
        <ele>334.932</ele>
        <time>2019-07-10T13:59:25Z</time>
      </trkpt>
      <trkpt lat="39.665228" lon="-0.358987">
        <ele>333.005</ele>
        <time>2019-07-10T13:59:45Z</time>
      </trkpt>
      <trkpt lat="39.665674" lon="-0.359931">
        <ele>348.008</ele>
        <time>2019-07-10T14:00:05Z</time>
      </trkpt>
      <trkpt lat="39.666268" lon="-0.360489">
        <ele>378.954</ele>
        <time>2019-07-10T14:00:25Z</time>
      </trkpt>
      <trkpt lat="39.666681" lon="-0.360779">
        <ele>386.699</ele>
        <time>2019-07-10T14:00:45Z</time>
      </trkpt>
      <trkpt lat="39.666805" lon="-0.361240">
        <ele>409.236</ele>
        <time>2019-07-10T14:01:05Z</time>
      </trkpt>
      <trkpt lat="39.666962" lon="-0.361540">
        <ele>419.772</ele>
        <time>2019-07-10T14:01:25Z</time>
      </trkpt>
      <trkpt lat="39.667152" lon="-0.361723">
        <ele>418.898</ele>
        <time>2019-07-10T14:01:45Z</time>
      </trkpt>
      <trkpt lat="39.667400" lon="-0.362270">
        <ele>427.677</ele>
        <time>2019-07-10T14:02:05Z</time>
      </trkpt>
      <trkpt lat="39.667928" lon="-0.362399">
        <ele>427.367</ele>
        <time>2019-07-10T14:02:25Z</time>
      </trkpt>
      <trkpt lat="39.668250" lon="-0.362720">
        <ele>424.168</ele>
        <time>2019-07-10T14:02:45Z</time>
      </trkpt>
      <trkpt lat="39.667986" lon="-0.363343">
        <ele>432.089</ele>
        <time>2019-07-10T14:03:05Z</time>
      </trkpt>
      <trkpt lat="39.667631" lon="-0.364062">
        <ele>435.806</ele>
        <time>2019-07-10T14:03:25Z</time>
      </trkpt>
      <trkpt lat="39.667623" lon="-0.364265">
        <ele>434.526</ele>
        <time>2019-07-10T14:03:45Z</time>
      </trkpt>
      <trkpt lat="39.667722" lon="-0.364577">
        <ele>431.808</ele>
        <time>2019-07-10T14:04:05Z</time>
      </trkpt>
      <trkpt lat="39.668027" lon="-0.365735">
        <ele>416.421</ele>
        <time>2019-07-10T14:04:25Z</time>
      </trkpt>
      <trkpt lat="39.668432" lon="-0.366154">
        <ele>412.466</ele>
        <time>2019-07-10T14:04:45Z</time>
      </trkpt>
      <trkpt lat="39.668382" lon="-0.366722">
        <ele>413.323</ele>
        <time>2019-07-10T14:05:05Z</time>
      </trkpt>
      <trkpt lat="39.668539" lon="-0.367334">
        <ele>409.869</ele>
        <time>2019-07-10T14:05:25Z</time>
      </trkpt>
      <trkpt lat="39.669126" lon="-0.367302">
        <ele>411.175</ele>
        <time>2019-07-10T14:05:45Z</time>
      </trkpt>
      <trkpt lat="39.669068" lon="-0.368085">
        <ele>412.324</ele>
        <time>2019-07-10T14:06:05Z</time>
      </trkpt>
      <trkpt lat="39.669142" lon="-0.368804">
        <ele>413.414</ele>
        <time>2019-07-10T14:06:25Z</time>
      </trkpt>
      <trkpt lat="39.669089" lon="-0.369968">
        <ele>417.945</ele>
        <time>2019-07-10T14:06:45Z</time>
      </trkpt>
      <trkpt lat="39.669320" lon="-0.370274">
        <ele>416.853</ele>
        <time>2019-07-10T14:07:05Z</time>
      </trkpt>
      <trkpt lat="39.669629" lon="-0.370461">
        <ele>417.904</ele>
        <time>2019-07-10T14:07:25Z</time>
      </trkpt>
      <trkpt lat="39.669720" lon="-0.370622">
        <ele>420.014</ele>
        <time>2019-07-10T14:07:45Z</time>
      </trkpt>
      <trkpt lat="39.669997" lon="-0.370789">
        <ele>427.108</ele>
        <time>2019-07-10T14:08:05Z</time>
      </trkpt>
      <trkpt lat="39.670195" lon="-0.371459">
        <ele>423.748</ele>
        <time>2019-07-10T14:08:25Z</time>
      </trkpt>
      <trkpt lat="39.670154" lon="-0.371819">
        <ele>417.183</ele>
        <time>2019-07-10T14:08:45Z</time>
      </trkpt>
      <trkpt lat="39.670753" lon="-0.372371">
        <ele>411.850</ele>
        <time>2019-07-10T14:09:05Z</time>
      </trkpt>
      <trkpt lat="39.671062" lon="-0.372816">
        <ele>401.016</ele>
        <time>2019-07-10T14:09:25Z</time>
      </trkpt>
      <trkpt lat="39.671170" lon="-0.373176">
        <ele>400.292</ele>
        <time>2019-07-10T14:09:45Z</time>
      </trkpt>
      <trkpt lat="39.671430" lon="-0.373455">
        <ele>403.931</ele>
        <time>2019-07-10T14:10:05Z</time>
      </trkpt>
      <trkpt lat="39.672128" lon="-0.373991">
        <ele>409.711</ele>
        <time>2019-07-10T14:10:25Z</time>
      </trkpt>
      <trkpt lat="39.671723" lon="-0.375595">
        <ele>420.682</ele>
        <time>2019-07-10T14:10:45Z</time>
      </trkpt>
      <trkpt lat="39.671727" lon="-0.375901">
        <ele>422.389</ele>
        <time>2019-07-10T14:11:05Z</time>
      </trkpt>
      <trkpt lat="39.672049" lon="-0.376250">
        <ele>418.706</ele>
        <time>2019-07-10T14:11:25Z</time>
      </trkpt>
      <trkpt lat="39.671917" lon="-0.376319">
        <ele>424.426</ele>
        <time>2019-07-10T14:11:45Z</time>
      </trkpt>
      <trkpt lat="39.671797" lon="-0.376475">
        <ele>428.108</ele>
        <time>2019-07-10T14:12:05Z</time>
      </trkpt>
      <trkpt lat="39.671702" lon="-0.376679">
        <ele>432.591</ele>
        <time>2019-07-10T14:12:25Z</time>
      </trkpt>
      <trkpt lat="39.671607" lon="-0.376770">
        <ele>434.946</ele>
        <time>2019-07-10T14:12:45Z</time>
      </trkpt>
      <trkpt lat="39.671409" lon="-0.376791">
        <ele>433.963</ele>
        <time>2019-07-10T14:13:05Z</time>
      </trkpt>
      <trkpt lat="39.671500" lon="-0.377178">
        <ele>441.279</ele>
        <time>2019-07-10T14:13:25Z</time>
      </trkpt>
      <trkpt lat="39.671397" lon="-0.377489">
        <ele>443.125</ele>
        <time>2019-07-10T14:13:45Z</time>
      </trkpt>
      <trkpt lat="39.671682" lon="-0.377832">
        <ele>456.874</ele>
        <time>2019-07-10T14:14:05Z</time>
      </trkpt>
      <trkpt lat="39.671917" lon="-0.378084">
        <ele>465.074</ele>
        <time>2019-07-10T14:14:25Z</time>
      </trkpt>
      <trkpt lat="39.671859" lon="-0.378159">
        <ele>467.885</ele>
        <time>2019-07-10T14:14:45Z</time>
      </trkpt>
      <trkpt lat="39.671900" lon="-0.378288">
        <ele>472.558</ele>
        <time>2019-07-10T14:15:05Z</time>
      </trkpt>
      <trkpt lat="39.671859" lon="-0.378492">
        <ele>481.652</ele>
        <time>2019-07-10T14:15:25Z</time>
      </trkpt>
      <trkpt lat="39.671483" lon="-0.378776">
        <ele>489.817</ele>
        <time>2019-07-10T14:15:45Z</time>
      </trkpt>
      <trkpt lat="39.671339" lon="-0.378975">
        <ele>492.308</ele>
        <time>2019-07-10T14:16:05Z</time>
      </trkpt>
      <trkpt lat="39.671244" lon="-0.379264">
        <ele>494.458</ele>
        <time>2019-07-10T14:16:25Z</time>
      </trkpt>
      <trkpt lat="39.671207" lon="-0.379398">
        <ele>495.223</ele>
        <time>2019-07-10T14:16:45Z</time>
      </trkpt>
      <trkpt lat="39.671318" lon="-0.379323">
        <ele>500.280</ele>
        <time>2019-07-10T14:17:05Z</time>
      </trkpt>
      <trkpt lat="39.671277" lon="-0.379549">
        <ele>503.866</ele>
        <time>2019-07-10T14:17:25Z</time>
      </trkpt>
      <trkpt lat="39.671421" lon="-0.379753">
        <ele>517.862</ele>
        <time>2019-07-10T14:17:45Z</time>
      </trkpt>
      <trkpt lat="39.671500" lon="-0.379967">
        <ele>525.821</ele>
        <time>2019-07-10T14:18:05Z</time>
      </trkpt>
      <trkpt lat="39.671669" lon="-0.380037">
        <ele>532.741</ele>
        <time>2019-07-10T14:18:25Z</time>
      </trkpt>
      <trkpt lat="39.671851" lon="-0.380160">
        <ele>541.642</ele>
        <time>2019-07-10T14:18:45Z</time>
      </trkpt>
      <trkpt lat="39.671591" lon="-0.380493">
        <ele>536.619</ele>
        <time>2019-07-10T14:19:05Z</time>
      </trkpt>
      <trkpt lat="39.671430" lon="-0.380670">
        <ele>528.609</ele>
        <time>2019-07-10T14:19:25Z</time>
      </trkpt>
      <trkpt lat="39.671475" lon="-0.380922">
        <ele>520.919</ele>
        <time>2019-07-10T14:19:45Z</time>
      </trkpt>
      <trkpt lat="39.671781" lon="-0.381094">
        <ele>533.808</ele>
        <time>2019-07-10T14:20:05Z</time>
      </trkpt>
      <trkpt lat="39.672020" lon="-0.381609">
        <ele>523.294</ele>
        <time>2019-07-10T14:20:25Z</time>
      </trkpt>
      <trkpt lat="39.672260" lon="-0.381973">
        <ele>516.079</ele>
        <time>2019-07-10T14:20:45Z</time>
      </trkpt>
      <trkpt lat="39.672545" lon="-0.382365">
        <ele>508.946</ele>
        <time>2019-07-10T14:21:05Z</time>
      </trkpt>
      <trkpt lat="39.672714" lon="-0.382531">
        <ele>506.132</ele>
        <time>2019-07-10T14:21:25Z</time>
      </trkpt>
      <trkpt lat="39.672945" lon="-0.382633">
        <ele>501.158</ele>
        <time>2019-07-10T14:21:45Z</time>
      </trkpt>
      <trkpt lat="39.673015" lon="-0.382762">
        <ele>498.617</ele>
        <time>2019-07-10T14:22:05Z</time>
      </trkpt>
      <trkpt lat="39.673251" lon="-0.382848">
        <ele>489.287</ele>
        <time>2019-07-10T14:22:25Z</time>
      </trkpt>
      <trkpt lat="39.673428" lon="-0.382757">
        <ele>479.968</ele>
        <time>2019-07-10T14:22:45Z</time>
      </trkpt>
      <trkpt lat="39.673515" lon="-0.382944">
        <ele>476.836</ele>
        <time>2019-07-10T14:23:05Z</time>
      </trkpt>
      <trkpt lat="39.673569" lon="-0.383245">
        <ele>474.217</ele>
        <time>2019-07-10T14:23:25Z</time>
      </trkpt>
      <trkpt lat="39.673668" lon="-0.383459">
        <ele>467.418</ele>
        <time>2019-07-10T14:23:45Z</time>
      </trkpt>
      <trkpt lat="39.673837" lon="-0.383722">
        <ele>455.008</ele>
        <time>2019-07-10T14:24:05Z</time>
      </trkpt>
      <trkpt lat="39.673973" lon="-0.383856">
        <ele>448.456</ele>
        <time>2019-07-10T14:24:25Z</time>
      </trkpt>
      <trkpt lat="39.674060" lon="-0.383947">
        <ele>444.841</ele>
        <time>2019-07-10T14:24:45Z</time>
      </trkpt>
      <trkpt lat="39.674064" lon="-0.384092">
        <ele>442.698</ele>
        <time>2019-07-10T14:25:05Z</time>
      </trkpt>
      <trkpt lat="39.674159" lon="-0.384216">
        <ele>439.914</ele>
        <time>2019-07-10T14:25:25Z</time>
      </trkpt>
      <trkpt lat="39.673313" lon="-0.384538">
        <ele>439.810</ele>
        <time>2019-07-10T14:25:45Z</time>
      </trkpt>
      <trkpt lat="39.672792" lon="-0.384634">
        <ele>433.599</ele>
        <time>2019-07-10T14:26:05Z</time>
      </trkpt>
      <trkpt lat="39.671847" lon="-0.384007">
        <ele>424.839</ele>
        <time>2019-07-10T14:26:25Z</time>
      </trkpt>
      <trkpt lat="39.671525" lon="-0.383636">
        <ele>424.130</ele>
        <time>2019-07-10T14:26:45Z</time>
      </trkpt>
      <trkpt lat="39.671182" lon="-0.383518">
        <ele>417.192</ele>
        <time>2019-07-10T14:27:05Z</time>
      </trkpt>
      <trkpt lat="39.670901" lon="-0.383137">
        <ele>413.573</ele>
        <time>2019-07-10T14:27:25Z</time>
      </trkpt>
      <trkpt lat="39.670055" lon="-0.382472">
        <ele>393.120</ele>
        <time>2019-07-10T14:27:45Z</time>
      </trkpt>
      <trkpt lat="39.669634" lon="-0.381941">
        <ele>397.608</ele>
        <time>2019-07-10T14:28:05Z</time>
      </trkpt>
      <trkpt lat="39.669361" lon="-0.381861">
        <ele>390.192</ele>
        <time>2019-07-10T14:28:25Z</time>
      </trkpt>
      <trkpt lat="39.669559" lon="-0.382231">
        <ele>387.557</ele>
        <time>2019-07-10T14:28:45Z</time>
      </trkpt>
      <trkpt lat="39.670005" lon="-0.382740">
        <ele>384.264</ele>
        <time>2019-07-10T14:29:05Z</time>
      </trkpt>
      <trkpt lat="39.670431" lon="-0.383180">
        <ele>388.750</ele>
        <time>2019-07-10T14:29:25Z</time>
      </trkpt>
      <trkpt lat="39.670662" lon="-0.383465">
        <ele>391.576</ele>
        <time>2019-07-10T14:29:45Z</time>
      </trkpt>
      <trkpt lat="39.670864" lon="-0.383910">
        <ele>390.695</ele>
        <time>2019-07-10T14:30:05Z</time>
      </trkpt>
      <trkpt lat="39.671248" lon="-0.384237">
        <ele>396.285</ele>
        <time>2019-07-10T14:30:25Z</time>
      </trkpt>
      <trkpt lat="39.671397" lon="-0.384763">
        <ele>389.616</ele>
        <time>2019-07-10T14:30:45Z</time>
      </trkpt>
      <trkpt lat="39.671578" lon="-0.385160">
        <ele>390.255</ele>
        <time>2019-07-10T14:31:05Z</time>
      </trkpt>
      <trkpt lat="39.671711" lon="-0.385283">
        <ele>392.907</ele>
        <time>2019-07-10T14:31:25Z</time>
      </trkpt>
      <trkpt lat="39.671748" lon="-0.385830">
        <ele>394.717</ele>
        <time>2019-07-10T14:31:45Z</time>
      </trkpt>
      <trkpt lat="39.671467" lon="-0.386201">
        <ele>385.408</ele>
        <time>2019-07-10T14:32:05Z</time>
      </trkpt>
      <trkpt lat="39.671496" lon="-0.386351">
        <ele>383.468</ele>
        <time>2019-07-10T14:32:25Z</time>
      </trkpt>
      <trkpt lat="39.671814" lon="-0.386431">
        <ele>383.143</ele>
        <time>2019-07-10T14:32:45Z</time>
      </trkpt>
      <trkpt lat="39.672049" lon="-0.386624">
        <ele>378.960</ele>
        <time>2019-07-10T14:33:05Z</time>
      </trkpt>
      <trkpt lat="39.672359" lon="-0.386528">
        <ele>381.826</ele>
        <time>2019-07-10T14:33:25Z</time>
      </trkpt>
      <trkpt lat="39.672214" lon="-0.386801">
        <ele>376.062</ele>
        <time>2019-07-10T14:33:45Z</time>
      </trkpt>
      <trkpt lat="39.672474" lon="-0.386699">
        <ele>376.451</ele>
        <time>2019-07-10T14:34:05Z</time>
      </trkpt>
      <trkpt lat="39.672553" lon="-0.386479">
        <ele>378.911</ele>
        <time>2019-07-10T14:34:25Z</time>
      </trkpt>
      <trkpt lat="39.673073" lon="-0.386463">
        <ele>372.032</ele>
        <time>2019-07-10T14:34:45Z</time>
      </trkpt>
      <trkpt lat="39.673346" lon="-0.386560">
        <ele>368.944</ele>
        <time>2019-07-10T14:35:05Z</time>
      </trkpt>
      <trkpt lat="39.673779" lon="-0.386893">
        <ele>376.205</ele>
        <time>2019-07-10T14:35:25Z</time>
      </trkpt>
      <trkpt lat="39.674126" lon="-0.387177">
        <ele>376.915</ele>
        <time>2019-07-10T14:35:45Z</time>
      </trkpt>
      <trkpt lat="39.674469" lon="-0.387660">
        <ele>386.208</ele>
        <time>2019-07-10T14:36:05Z</time>
      </trkpt>
      <trkpt lat="39.674927" lon="-0.388132">
        <ele>389.377</ele>
        <time>2019-07-10T14:36:25Z</time>
      </trkpt>
      <trkpt lat="39.675695" lon="-0.388518">
        <ele>394.562</ele>
        <time>2019-07-10T14:36:45Z</time>
      </trkpt>
      <trkpt lat="39.676290" lon="-0.388893">
        <ele>403.749</ele>
        <time>2019-07-10T14:37:05Z</time>
      </trkpt>
      <trkpt lat="39.676744" lon="-0.390133">
        <ele>416.275</ele>
        <time>2019-07-10T14:37:25Z</time>
      </trkpt>
      <trkpt lat="39.676785" lon="-0.390546">
        <ele>419.431</ele>
        <time>2019-07-10T14:37:45Z</time>
      </trkpt>
      <trkpt lat="39.677115" lon="-0.390717">
        <ele>417.230</ele>
        <time>2019-07-10T14:38:05Z</time>
      </trkpt>
      <trkpt lat="39.677280" lon="-0.391077">
        <ele>417.670</ele>
        <time>2019-07-10T14:38:25Z</time>
      </trkpt>
      <trkpt lat="39.677710" lon="-0.391442">
        <ele>418.521</ele>
        <time>2019-07-10T14:38:45Z</time>
      </trkpt>
      <trkpt lat="39.677739" lon="-0.391721">
        <ele>418.871</ele>
        <time>2019-07-10T14:39:05Z</time>
      </trkpt>
      <trkpt lat="39.678284" lon="-0.391978">
        <ele>434.641</ele>
        <time>2019-07-10T14:39:25Z</time>
      </trkpt>
      <trkpt lat="39.678589" lon="-0.391710">
        <ele>439.115</ele>
        <time>2019-07-10T14:39:45Z</time>
      </trkpt>
      <trkpt lat="39.678618" lon="-0.391565">
        <ele>438.808</ele>
        <time>2019-07-10T14:40:05Z</time>
      </trkpt>
      <trkpt lat="39.678573" lon="-0.391468">
        <ele>437.570</ele>
        <time>2019-07-10T14:40:25Z</time>
      </trkpt>
      <trkpt lat="39.678676" lon="-0.391302">
        <ele>439.915</ele>
        <time>2019-07-10T14:40:45Z</time>
      </trkpt>
      <trkpt lat="39.678758" lon="-0.391168">
        <ele>442.152</ele>
        <time>2019-07-10T14:41:05Z</time>
      </trkpt>
      <trkpt lat="39.678725" lon="-0.390846">
        <ele>442.678</ele>
        <time>2019-07-10T14:41:25Z</time>
      </trkpt>
      <trkpt lat="39.678957" lon="-0.390417">
        <ele>446.284</ele>
        <time>2019-07-10T14:41:45Z</time>
      </trkpt>
      <trkpt lat="39.679419" lon="-0.390347">
        <ele>453.933</ele>
        <time>2019-07-10T14:42:05Z</time>
      </trkpt>
      <trkpt lat="39.679725" lon="-0.390299">
        <ele>457.393</ele>
        <time>2019-07-10T14:42:25Z</time>
      </trkpt>
      <trkpt lat="39.680133" lon="-0.390471">
        <ele>465.384</ele>
        <time>2019-07-10T14:42:45Z</time>
      </trkpt>
      <trkpt lat="39.680245" lon="-0.390417">
        <ele>466.965</ele>
        <time>2019-07-10T14:43:05Z</time>
      </trkpt>
      <trkpt lat="39.680216" lon="-0.390235">
        <ele>464.668</ele>
        <time>2019-07-10T14:43:25Z</time>
      </trkpt>
      <trkpt lat="39.680253" lon="-0.389832">
        <ele>465.914</ele>
        <time>2019-07-10T14:43:45Z</time>
      </trkpt>
      <trkpt lat="39.680369" lon="-0.389553">
        <ele>468.908</ele>
        <time>2019-07-10T14:44:05Z</time>
      </trkpt>
      <trkpt lat="39.680641" lon="-0.389344">
        <ele>472.439</ele>
        <time>2019-07-10T14:44:25Z</time>
      </trkpt>
      <trkpt lat="39.680658" lon="-0.389178">
        <ele>472.684</ele>
        <time>2019-07-10T14:44:45Z</time>
      </trkpt>
      <trkpt lat="39.680422" lon="-0.389071">
        <ele>470.981</ele>
        <time>2019-07-10T14:45:05Z</time>
      </trkpt>
      <trkpt lat="39.680100" lon="-0.388845">
        <ele>475.987</ele>
        <time>2019-07-10T14:45:25Z</time>
      </trkpt>
      <trkpt lat="39.679584" lon="-0.389103">
        <ele>483.343</ele>
        <time>2019-07-10T14:45:45Z</time>
      </trkpt>
      <trkpt lat="39.679514" lon="-0.389001">
        <ele>485.352</ele>
        <time>2019-07-10T14:46:05Z</time>
      </trkpt>
      <trkpt lat="39.679592" lon="-0.388443">
        <ele>486.172</ele>
        <time>2019-07-10T14:46:25Z</time>
      </trkpt>
      <trkpt lat="39.678858" lon="-0.388893">
        <ele>490.243</ele>
        <time>2019-07-10T14:46:45Z</time>
      </trkpt>
      <trkpt lat="39.678564" lon="-0.388743">
        <ele>487.296</ele>
        <time>2019-07-10T14:47:05Z</time>
      </trkpt>
      <trkpt lat="39.678036" lon="-0.388298">
        <ele>490.331</ele>
        <time>2019-07-10T14:47:25Z</time>
      </trkpt>
      <trkpt lat="39.677681" lon="-0.388148">
        <ele>476.024</ele>
        <time>2019-07-10T14:47:45Z</time>
      </trkpt>
      <trkpt lat="39.677677" lon="-0.387649">
        <ele>473.608</ele>
        <time>2019-07-10T14:48:05Z</time>
      </trkpt>
      <trkpt lat="39.677920" lon="-0.387048">
        <ele>472.992</ele>
        <time>2019-07-10T14:48:25Z</time>
      </trkpt>
      <trkpt lat="39.678135" lon="-0.386469">
        <ele>468.727</ele>
        <time>2019-07-10T14:48:45Z</time>
      </trkpt>
      <trkpt lat="39.678073" lon="-0.386431">
        <ele>464.364</ele>
        <time>2019-07-10T14:49:05Z</time>
      </trkpt>
      <trkpt lat="39.677763" lon="-0.386796">
        <ele>461.490</ele>
        <time>2019-07-10T14:49:25Z</time>
      </trkpt>
      <trkpt lat="39.677107" lon="-0.387177">
        <ele>449.926</ele>
        <time>2019-07-10T14:49:45Z</time>
      </trkpt>
      <trkpt lat="39.676294" lon="-0.386410">
        <ele>442.075</ele>
        <time>2019-07-10T14:50:05Z</time>
      </trkpt>
      <trkpt lat="39.675765" lon="-0.385906">
        <ele>438.595</ele>
        <time>2019-07-10T14:50:25Z</time>
      </trkpt>
      <trkpt lat="39.675030" lon="-0.385675">
        <ele>443.616</ele>
        <time>2019-07-10T14:50:45Z</time>
      </trkpt>
      <trkpt lat="39.674646" lon="-0.385594">
        <ele>444.528</ele>
        <time>2019-07-10T14:51:05Z</time>
      </trkpt>
      <trkpt lat="39.674382" lon="-0.385181">
        <ele>445.189</ele>
        <time>2019-07-10T14:51:25Z</time>
      </trkpt>
      <trkpt lat="39.674374" lon="-0.384302">
        <ele>440.617</ele>
        <time>2019-07-10T14:51:45Z</time>
      </trkpt>
      <trkpt lat="39.674427" lon="-0.384157">
        <ele>439.908</ele>
        <time>2019-07-10T14:52:05Z</time>
      </trkpt>
      <trkpt lat="39.674576" lon="-0.383931">
        <ele>438.165</ele>
        <time>2019-07-10T14:52:25Z</time>
      </trkpt>
      <trkpt lat="39.674675" lon="-0.383583">
        <ele>430.510</ele>
        <time>2019-07-10T14:52:45Z</time>
      </trkpt>
      <trkpt lat="39.674299" lon="-0.382032">
        <ele>431.087</ele>
        <time>2019-07-10T14:53:05Z</time>
      </trkpt>
      <trkpt lat="39.674370" lon="-0.381796">
        <ele>428.663</ele>
        <time>2019-07-10T14:53:25Z</time>
      </trkpt>
      <trkpt lat="39.675166" lon="-0.381297">
        <ele>406.839</ele>
        <time>2019-07-10T14:53:45Z</time>
      </trkpt>
      <trkpt lat="39.675455" lon="-0.380348">
        <ele>401.828</ele>
        <time>2019-07-10T14:54:05Z</time>
      </trkpt>
      <trkpt lat="39.675773" lon="-0.379742">
        <ele>389.388</ele>
        <time>2019-07-10T14:54:25Z</time>
      </trkpt>
      <trkpt lat="39.675105" lon="-0.378234">
        <ele>381.969</ele>
        <time>2019-07-10T14:54:45Z</time>
      </trkpt>
      <trkpt lat="39.675055" lon="-0.377634">
        <ele>367.422</ele>
        <time>2019-07-10T14:55:05Z</time>
      </trkpt>
      <trkpt lat="39.675435" lon="-0.378041">
        <ele>367.062</ele>
        <time>2019-07-10T14:55:25Z</time>
      </trkpt>
      <trkpt lat="39.676013" lon="-0.377913">
        <ele>352.308</ele>
        <time>2019-07-10T14:55:45Z</time>
      </trkpt>
      <trkpt lat="39.676178" lon="-0.376925">
        <ele>338.508</ele>
        <time>2019-07-10T14:56:05Z</time>
      </trkpt>
      <trkpt lat="39.676574" lon="-0.377162">
        <ele>334.475</ele>
        <time>2019-07-10T14:56:25Z</time>
      </trkpt>
      <trkpt lat="39.676740" lon="-0.377548">
        <ele>331.540</ele>
        <time>2019-07-10T14:56:45Z</time>
      </trkpt>
      <trkpt lat="39.676591" lon="-0.378020">
        <ele>338.837</ele>
        <time>2019-07-10T14:57:05Z</time>
      </trkpt>
      <trkpt lat="39.677169" lon="-0.378492">
        <ele>318.673</ele>
        <time>2019-07-10T14:57:25Z</time>
      </trkpt>
      <trkpt lat="39.677037" lon="-0.379221">
        <ele>321.819</ele>
        <time>2019-07-10T14:57:45Z</time>
      </trkpt>
      <trkpt lat="39.677598" lon="-0.380058">
        <ele>322.118</ele>
        <time>2019-07-10T14:58:05Z</time>
      </trkpt>
      <trkpt lat="39.677813" lon="-0.379629">
        <ele>318.128</ele>
        <time>2019-07-10T14:58:25Z</time>
      </trkpt>
      <trkpt lat="39.677648" lon="-0.378985">
        <ele>309.879</ele>
        <time>2019-07-10T14:58:45Z</time>
      </trkpt>
      <trkpt lat="39.678160" lon="-0.378320">
        <ele>310.541</ele>
        <time>2019-07-10T14:59:05Z</time>
      </trkpt>
      <trkpt lat="39.678028" lon="-0.377655">
        <ele>302.581</ele>
        <time>2019-07-10T14:59:25Z</time>
      </trkpt>
      <trkpt lat="39.678358" lon="-0.377226">
        <ele>302.709</ele>
        <time>2019-07-10T14:59:45Z</time>
      </trkpt>
      <trkpt lat="39.678589" lon="-0.376947">
        <ele>302.608</ele>
        <time>2019-07-10T15:00:05Z</time>
      </trkpt>
      <trkpt lat="39.678804" lon="-0.376325">
        <ele>295.237</ele>
        <time>2019-07-10T15:00:25Z</time>
      </trkpt>
      <trkpt lat="39.679531" lon="-0.376432">
        <ele>298.182</ele>
        <time>2019-07-10T15:00:45Z</time>
      </trkpt>
      <trkpt lat="39.680340" lon="-0.376089">
        <ele>296.179</ele>
        <time>2019-07-10T15:01:05Z</time>
      </trkpt>
      <trkpt lat="39.680488" lon="-0.375724">
        <ele>287.285</ele>
        <time>2019-07-10T15:01:25Z</time>
      </trkpt>
      <trkpt lat="39.680901" lon="-0.375316">
        <ele>282.981</ele>
        <time>2019-07-10T15:01:45Z</time>
      </trkpt>
      <trkpt lat="39.681529" lon="-0.374351">
        <ele>271.320</ele>
        <time>2019-07-10T15:02:05Z</time>
      </trkpt>
      <trkpt lat="39.681776" lon="-0.374608">
        <ele>274.520</ele>
        <time>2019-07-10T15:02:25Z</time>
      </trkpt>
      <trkpt lat="39.682074" lon="-0.375595">
        <ele>272.631</ele>
        <time>2019-07-10T15:02:45Z</time>
      </trkpt>
      <trkpt lat="39.682231" lon="-0.375745">
        <ele>271.643</ele>
        <time>2019-07-10T15:03:05Z</time>
      </trkpt>
      <trkpt lat="39.682404" lon="-0.375423">
        <ele>271.964</ele>
        <time>2019-07-10T15:03:25Z</time>
      </trkpt>
      <trkpt lat="39.683081" lon="-0.374383">
        <ele>268.510</ele>
        <time>2019-07-10T15:03:45Z</time>
      </trkpt>
      <trkpt lat="39.683180" lon="-0.374115">
        <ele>266.108</ele>
        <time>2019-07-10T15:04:05Z</time>
      </trkpt>
      <trkpt lat="39.683775" lon="-0.374007">
        <ele>273.767</ele>
        <time>2019-07-10T15:04:25Z</time>
      </trkpt>
      <trkpt lat="39.683197" lon="-0.374222">
        <ele>267.442</ele>
        <time>2019-07-10T15:04:45Z</time>
      </trkpt>
      <trkpt lat="39.682396" lon="-0.375348">
        <ele>271.049</ele>
        <time>2019-07-10T15:05:05Z</time>
      </trkpt>
      <trkpt lat="39.682239" lon="-0.375659">
        <ele>271.145</ele>
        <time>2019-07-10T15:05:25Z</time>
      </trkpt>
      <trkpt lat="39.682115" lon="-0.375520">
        <ele>271.471</ele>
        <time>2019-07-10T15:05:45Z</time>
      </trkpt>
      <trkpt lat="39.681702" lon="-0.374383">
        <ele>272.160</ele>
        <time>2019-07-10T15:06:05Z</time>
      </trkpt>
      <trkpt lat="39.681463" lon="-0.374340">
        <ele>270.970</ele>
        <time>2019-07-10T15:06:25Z</time>
      </trkpt>
      <trkpt lat="39.680802" lon="-0.374393">
        <ele>262.531</ele>
        <time>2019-07-10T15:06:45Z</time>
      </trkpt>
      <trkpt lat="39.680290" lon="-0.374705">
        <ele>261.991</ele>
        <time>2019-07-10T15:07:05Z</time>
      </trkpt>
      <trkpt lat="39.680109" lon="-0.374029">
        <ele>249.781</ele>
        <time>2019-07-10T15:07:25Z</time>
      </trkpt>
      <trkpt lat="39.679811" lon="-0.374254">
        <ele>254.019</ele>
        <time>2019-07-10T15:07:45Z</time>
      </trkpt>
      <trkpt lat="39.679729" lon="-0.374200">
        <ele>255.008</ele>
        <time>2019-07-10T15:08:05Z</time>
      </trkpt>
      <trkpt lat="39.679704" lon="-0.373825">
        <ele>249.982</ele>
        <time>2019-07-10T15:08:25Z</time>
      </trkpt>
      <trkpt lat="39.679341" lon="-0.373503">
        <ele>256.737</ele>
        <time>2019-07-10T15:08:45Z</time>
      </trkpt>
      <trkpt lat="39.678969" lon="-0.373503">
        <ele>266.894</ele>
        <time>2019-07-10T15:09:05Z</time>
      </trkpt>
      <trkpt lat="39.678721" lon="-0.373342">
        <ele>267.710</ele>
        <time>2019-07-10T15:09:25Z</time>
      </trkpt>
      <trkpt lat="39.678366" lon="-0.373449">
        <ele>270.766</ele>
        <time>2019-07-10T15:09:45Z</time>
      </trkpt>
      <trkpt lat="39.678044" lon="-0.373760">
        <ele>277.245</ele>
        <time>2019-07-10T15:10:05Z</time>
      </trkpt>
      <trkpt lat="39.677268" lon="-0.373449">
        <ele>285.555</ele>
        <time>2019-07-10T15:10:25Z</time>
      </trkpt>
      <trkpt lat="39.676971" lon="-0.373213">
        <ele>286.976</ele>
        <time>2019-07-10T15:10:45Z</time>
      </trkpt>
      <trkpt lat="39.676731" lon="-0.373256">
        <ele>284.098</ele>
        <time>2019-07-10T15:11:05Z</time>
      </trkpt>
      <trkpt lat="39.676558" lon="-0.373342">
        <ele>284.615</ele>
        <time>2019-07-10T15:11:25Z</time>
      </trkpt>
      <trkpt lat="39.675897" lon="-0.373363">
        <ele>286.626</ele>
        <time>2019-07-10T15:11:45Z</time>
      </trkpt>
      <trkpt lat="39.675691" lon="-0.372999">
        <ele>290.708</ele>
        <time>2019-07-10T15:12:05Z</time>
      </trkpt>
      <trkpt lat="39.675476" lon="-0.372924">
        <ele>296.152</ele>
        <time>2019-07-10T15:12:25Z</time>
      </trkpt>
      <trkpt lat="39.675154" lon="-0.372216">
        <ele>308.187</ele>
        <time>2019-07-10T15:12:45Z</time>
      </trkpt>
      <trkpt lat="39.674766" lon="-0.371754">
        <ele>311.874</ele>
        <time>2019-07-10T15:13:05Z</time>
      </trkpt>
      <trkpt lat="39.674246" lon="-0.371486">
        <ele>314.120</ele>
        <time>2019-07-10T15:13:25Z</time>
      </trkpt>
      <trkpt lat="39.673635" lon="-0.371518">
        <ele>321.716</ele>
        <time>2019-07-10T15:13:45Z</time>
      </trkpt>
      <trkpt lat="39.673280" lon="-0.371228">
        <ele>326.135</ele>
        <time>2019-07-10T15:14:05Z</time>
      </trkpt>
      <trkpt lat="39.672966" lon="-0.371411">
        <ele>338.935</ele>
        <time>2019-07-10T15:14:25Z</time>
      </trkpt>
      <trkpt lat="39.672817" lon="-0.371250">
        <ele>351.586</ele>
        <time>2019-07-10T15:14:45Z</time>
      </trkpt>
      <trkpt lat="39.672768" lon="-0.370520">
        <ele>364.257</ele>
        <time>2019-07-10T15:15:05Z</time>
      </trkpt>
      <trkpt lat="39.672495" lon="-0.370231">
        <ele>380.200</ele>
        <time>2019-07-10T15:15:25Z</time>
      </trkpt>
      <trkpt lat="39.672223" lon="-0.369898">
        <ele>393.720</ele>
        <time>2019-07-10T15:15:45Z</time>
      </trkpt>
      <trkpt lat="39.672016" lon="-0.369780">
        <ele>397.008</ele>
        <time>2019-07-10T15:16:05Z</time>
      </trkpt>
      <trkpt lat="39.671867" lon="-0.369684">
        <ele>399.688</ele>
        <time>2019-07-10T15:16:25Z</time>
      </trkpt>
      <trkpt lat="39.671537" lon="-0.369555">
        <ele>405.623</ele>
        <time>2019-07-10T15:16:45Z</time>
      </trkpt>
      <trkpt lat="39.671273" lon="-0.369383">
        <ele>407.780</ele>
        <time>2019-07-10T15:17:05Z</time>
      </trkpt>
      <trkpt lat="39.671397" lon="-0.368986">
        <ele>403.246</ele>
        <time>2019-07-10T15:17:25Z</time>
      </trkpt>
      <trkpt lat="39.671595" lon="-0.368181">
        <ele>403.962</ele>
        <time>2019-07-10T15:17:45Z</time>
      </trkpt>
      <trkpt lat="39.671785" lon="-0.367602">
        <ele>399.821</ele>
        <time>2019-07-10T15:18:05Z</time>
      </trkpt>
      <trkpt lat="39.672701" lon="-0.367398">
        <ele>396.961</ele>
        <time>2019-07-10T15:18:25Z</time>
      </trkpt>
      <trkpt lat="39.673131" lon="-0.367119">
        <ele>399.982</ele>
        <time>2019-07-10T15:18:45Z</time>
      </trkpt>
      <trkpt lat="39.673659" lon="-0.366304">
        <ele>399.362</ele>
        <time>2019-07-10T15:19:05Z</time>
      </trkpt>
      <trkpt lat="39.673915" lon="-0.365725">
        <ele>401.483</ele>
        <time>2019-07-10T15:19:25Z</time>
      </trkpt>
      <trkpt lat="39.674840" lon="-0.365295">
        <ele>397.111</ele>
        <time>2019-07-10T15:19:45Z</time>
      </trkpt>
      <trkpt lat="39.675906" lon="-0.364673">
        <ele>387.408</ele>
        <time>2019-07-10T15:20:05Z</time>
      </trkpt>
      <trkpt lat="39.676616" lon="-0.363600">
        <ele>383.349</ele>
        <time>2019-07-10T15:20:25Z</time>
      </trkpt>
      <trkpt lat="39.677078" lon="-0.363117">
        <ele>391.764</ele>
        <time>2019-07-10T15:20:45Z</time>
      </trkpt>
      <trkpt lat="39.677813" lon="-0.363214">
        <ele>389.481</ele>
        <time>2019-07-10T15:21:05Z</time>
      </trkpt>
      <trkpt lat="39.678193" lon="-0.362924">
        <ele>396.627</ele>
        <time>2019-07-10T15:21:25Z</time>
      </trkpt>
      <trkpt lat="39.678664" lon="-0.362774">
        <ele>388.913</ele>
        <time>2019-07-10T15:21:45Z</time>
      </trkpt>
      <trkpt lat="39.678474" lon="-0.362163">
        <ele>394.992</ele>
        <time>2019-07-10T15:22:05Z</time>
      </trkpt>
      <trkpt lat="39.678507" lon="-0.361422">
        <ele>391.312</ele>
        <time>2019-07-10T15:22:25Z</time>
      </trkpt>
      <trkpt lat="39.678358" lon="-0.361133">
        <ele>390.933</ele>
        <time>2019-07-10T15:22:45Z</time>
      </trkpt>
      <trkpt lat="39.677532" lon="-0.361251">
        <ele>404.756</ele>
        <time>2019-07-10T15:23:05Z</time>
      </trkpt>
      <trkpt lat="39.677029" lon="-0.360811">
        <ele>397.959</ele>
        <time>2019-07-10T15:23:25Z</time>
      </trkpt>
      <trkpt lat="39.676797" lon="-0.360221">
        <ele>384.714</ele>
        <time>2019-07-10T15:23:45Z</time>
      </trkpt>
      <trkpt lat="39.676888" lon="-0.359952">
        <ele>383.908</ele>
        <time>2019-07-10T15:24:05Z</time>
      </trkpt>
      <trkpt lat="39.677516" lon="-0.359234">
        <ele>386.178</ele>
        <time>2019-07-10T15:24:25Z</time>
      </trkpt>
      <trkpt lat="39.677607" lon="-0.358086">
        <ele>381.933</ele>
        <time>2019-07-10T15:24:45Z</time>
      </trkpt>
      <trkpt lat="39.678176" lon="-0.357034">
        <ele>374.460</ele>
        <time>2019-07-10T15:25:05Z</time>
      </trkpt>
      <trkpt lat="39.678573" lon="-0.355854">
        <ele>365.066</ele>
        <time>2019-07-10T15:25:25Z</time>
      </trkpt>
      <trkpt lat="39.678614" lon="-0.355242">
        <ele>360.652</ele>
        <time>2019-07-10T15:25:45Z</time>
      </trkpt>
      <trkpt lat="39.678920" lon="-0.354974">
        <ele>367.271</ele>
        <time>2019-07-10T15:26:05Z</time>
      </trkpt>
      <trkpt lat="39.678936" lon="-0.353644">
        <ele>357.941</ele>
        <time>2019-07-10T15:26:25Z</time>
      </trkpt>
      <trkpt lat="39.679564" lon="-0.352635">
        <ele>363.482</ele>
        <time>2019-07-10T15:26:45Z</time>
      </trkpt>
      <trkpt lat="39.679663" lon="-0.351970">
        <ele>367.814</ele>
        <time>2019-07-10T15:27:05Z</time>
      </trkpt>
      <trkpt lat="39.679613" lon="-0.351112">
        <ele>359.754</ele>
        <time>2019-07-10T15:27:25Z</time>
      </trkpt>
      <trkpt lat="39.679415" lon="-0.350082">
        <ele>357.209</ele>
        <time>2019-07-10T15:27:45Z</time>
      </trkpt>
      <trkpt lat="39.679456" lon="-0.348837">
        <ele>338.108</ele>
        <time>2019-07-10T15:28:05Z</time>
      </trkpt>
      <trkpt lat="39.679498" lon="-0.348569">
        <ele>334.744</ele>
        <time>2019-07-10T15:28:25Z</time>
      </trkpt>
      <trkpt lat="39.680150" lon="-0.347164">
        <ele>328.759</ele>
        <time>2019-07-10T15:28:45Z</time>
      </trkpt>
      <trkpt lat="39.679820" lon="-0.346853">
        <ele>323.126</ele>
        <time>2019-07-10T15:29:05Z</time>
      </trkpt>
      <trkpt lat="39.679803" lon="-0.346670">
        <ele>318.942</ele>
        <time>2019-07-10T15:29:25Z</time>
      </trkpt>
      <trkpt lat="39.679919" lon="-0.346198">
        <ele>308.788</ele>
        <time>2019-07-10T15:29:45Z</time>
      </trkpt>
      <trkpt lat="39.680034" lon="-0.345844">
        <ele>303.227</ele>
        <time>2019-07-10T15:30:05Z</time>
      </trkpt>
      <trkpt lat="39.679968" lon="-0.345039">
        <ele>302.157</ele>
        <time>2019-07-10T15:30:25Z</time>
      </trkpt>
      <trkpt lat="39.680014" lon="-0.344707">
        <ele>306.618</ele>
        <time>2019-07-10T15:30:45Z</time>
      </trkpt>
      <trkpt lat="39.680133" lon="-0.344380">
        <ele>312.049</ele>
        <time>2019-07-10T15:31:05Z</time>
      </trkpt>
      <trkpt lat="39.680447" lon="-0.343688">
        <ele>325.002</ele>
        <time>2019-07-10T15:31:25Z</time>
      </trkpt>
      <trkpt lat="39.680691" lon="-0.343242">
        <ele>334.922</ele>
        <time>2019-07-10T15:31:45Z</time>
      </trkpt>
      <trkpt lat="39.680633" lon="-0.342920">
        <ele>321.408</ele>
        <time>2019-07-10T15:32:05Z</time>
      </trkpt>
      <trkpt lat="39.680765" lon="-0.342786">
        <ele>327.477</ele>
        <time>2019-07-10T15:32:25Z</time>
      </trkpt>
      <trkpt lat="39.680918" lon="-0.342169">
        <ele>313.012</ele>
        <time>2019-07-10T15:32:45Z</time>
      </trkpt>
      <trkpt lat="39.680864" lon="-0.341955">
        <ele>303.419</ele>
        <time>2019-07-10T15:33:05Z</time>
      </trkpt>
      <trkpt lat="39.680980" lon="-0.341579">
        <ele>293.025</ele>
        <time>2019-07-10T15:33:25Z</time>
      </trkpt>
      <trkpt lat="39.681042" lon="-0.341338">
        <ele>287.271</ele>
        <time>2019-07-10T15:33:45Z</time>
      </trkpt>
      <trkpt lat="39.681665" lon="-0.340582">
        <ele>278.080</ele>
        <time>2019-07-10T15:34:05Z</time>
      </trkpt>
      <trkpt lat="39.680909" lon="-0.340887">
        <ele>268.150</ele>
        <time>2019-07-10T15:34:25Z</time>
      </trkpt>
      <trkpt lat="39.680740" lon="-0.341000">
        <ele>264.941</ele>
        <time>2019-07-10T15:34:45Z</time>
      </trkpt>
      <trkpt lat="39.680402" lon="-0.341703">
        <ele>272.198</ele>
        <time>2019-07-10T15:35:05Z</time>
      </trkpt>
      <trkpt lat="39.679898" lon="-0.342078">
        <ele>263.115</ele>
        <time>2019-07-10T15:35:25Z</time>
      </trkpt>
      <trkpt lat="39.679613" lon="-0.342346">
        <ele>256.526</ele>
        <time>2019-07-10T15:35:45Z</time>
      </trkpt>
      <trkpt lat="39.679407" lon="-0.342652">
        <ele>253.408</ele>
        <time>2019-07-10T15:36:05Z</time>
      </trkpt>
      <trkpt lat="39.679303" lon="-0.343012">
        <ele>256.532</ele>
        <time>2019-07-10T15:36:25Z</time>
      </trkpt>
      <trkpt lat="39.679287" lon="-0.343468">
        <ele>261.837</ele>
        <time>2019-07-10T15:36:45Z</time>
      </trkpt>
      <trkpt lat="39.678626" lon="-0.344074">
        <ele>254.354</ele>
        <time>2019-07-10T15:37:05Z</time>
      </trkpt>
      <trkpt lat="39.678197" lon="-0.343875">
        <ele>244.490</ele>
        <time>2019-07-10T15:37:25Z</time>
      </trkpt>
      <trkpt lat="39.678280" lon="-0.343677">
        <ele>243.186</ele>
        <time>2019-07-10T15:37:45Z</time>
      </trkpt>
      <trkpt lat="39.678763" lon="-0.343296">
        <ele>242.525</ele>
        <time>2019-07-10T15:38:05Z</time>
      </trkpt>
      <trkpt lat="39.678841" lon="-0.343130">
        <ele>241.645</ele>
        <time>2019-07-10T15:38:25Z</time>
      </trkpt>
      <trkpt lat="39.678317" lon="-0.342089">
        <ele>214.976</ele>
        <time>2019-07-10T15:38:45Z</time>
      </trkpt>
      <trkpt lat="39.678036" lon="-0.342599">
        <ele>218.056</ele>
        <time>2019-07-10T15:39:05Z</time>
      </trkpt>
      <trkpt lat="39.677854" lon="-0.342738">
        <ele>219.259</ele>
        <time>2019-07-10T15:39:25Z</time>
      </trkpt>
      <trkpt lat="39.677730" lon="-0.342851">
        <ele>219.414</ele>
        <time>2019-07-10T15:39:45Z</time>
      </trkpt>
      <trkpt lat="39.677652" lon="-0.343060">
        <ele>221.308</ele>
        <time>2019-07-10T15:40:05Z</time>
      </trkpt>
      <trkpt lat="39.677635" lon="-0.343215">
        <ele>223.228</ele>
        <time>2019-07-10T15:40:25Z</time>
      </trkpt>
      <trkpt lat="39.677561" lon="-0.342990">
        <ele>218.943</ele>
        <time>2019-07-10T15:40:45Z</time>
      </trkpt>
      <trkpt lat="39.677586" lon="-0.342835">
        <ele>217.160</ele>
        <time>2019-07-10T15:41:05Z</time>
      </trkpt>
      <trkpt lat="39.677408" lon="-0.343065">
        <ele>217.426</ele>
        <time>2019-07-10T15:41:25Z</time>
      </trkpt>
      <trkpt lat="39.677285" lon="-0.343317">
        <ele>218.022</ele>
        <time>2019-07-10T15:41:45Z</time>
      </trkpt>
      <trkpt lat="39.677441" lon="-0.343709">
        <ele>225.231</ele>
        <time>2019-07-10T15:42:05Z</time>
      </trkpt>
      <trkpt lat="39.677474" lon="-0.344127">
        <ele>231.151</ele>
        <time>2019-07-10T15:42:25Z</time>
      </trkpt>
      <trkpt lat="39.677417" lon="-0.344546">
        <ele>235.482</ele>
        <time>2019-07-10T15:42:45Z</time>
      </trkpt>
      <trkpt lat="39.677136" lon="-0.345415">
        <ele>253.433</ele>
        <time>2019-07-10T15:43:05Z</time>
      </trkpt>
      <trkpt lat="39.676682" lon="-0.345790">
        <ele>261.523</ele>
        <time>2019-07-10T15:43:25Z</time>
      </trkpt>
      <trkpt lat="39.676393" lon="-0.345780">
        <ele>259.115</ele>
        <time>2019-07-10T15:43:45Z</time>
      </trkpt>
      <trkpt lat="39.676343" lon="-0.346509">
        <ele>270.308</ele>
        <time>2019-07-10T15:44:05Z</time>
      </trkpt>
      <trkpt lat="39.676294" lon="-0.346895">
        <ele>277.976</ele>
        <time>2019-07-10T15:44:25Z</time>
      </trkpt>
      <trkpt lat="39.675996" lon="-0.347475">
        <ele>287.581</ele>
        <time>2019-07-10T15:44:45Z</time>
      </trkpt>
      <trkpt lat="39.675534" lon="-0.347775">
        <ele>292.868</ele>
        <time>2019-07-10T15:45:05Z</time>
      </trkpt>
      <trkpt lat="39.675278" lon="-0.347389">
        <ele>282.874</ele>
        <time>2019-07-10T15:45:25Z</time>
      </trkpt>
      <trkpt lat="39.674939" lon="-0.347024">
        <ele>270.320</ele>
        <time>2019-07-10T15:45:45Z</time>
      </trkpt>
      <trkpt lat="39.674890" lon="-0.346853">
        <ele>269.439</ele>
        <time>2019-07-10T15:46:05Z</time>
      </trkpt>
      <trkpt lat="39.674485" lon="-0.347711">
        <ele>254.749</ele>
        <time>2019-07-10T15:46:25Z</time>
      </trkpt>
      <trkpt lat="39.674304" lon="-0.347968">
        <ele>249.260</ele>
        <time>2019-07-10T15:46:45Z</time>
      </trkpt>
      <trkpt lat="39.674180" lon="-0.347861">
        <ele>244.044</ele>
        <time>2019-07-10T15:47:05Z</time>
      </trkpt>
      <trkpt lat="39.673940" lon="-0.348666">
        <ele>240.305</ele>
        <time>2019-07-10T15:47:25Z</time>
      </trkpt>
      <trkpt lat="39.673420" lon="-0.348376">
        <ele>225.115</ele>
        <time>2019-07-10T15:47:45Z</time>
      </trkpt>
      <trkpt lat="39.673313" lon="-0.347754">
        <ele>212.708</ele>
        <time>2019-07-10T15:48:05Z</time>
      </trkpt>
      <trkpt lat="39.672660" lon="-0.347260">
        <ele>206.097</ele>
        <time>2019-07-10T15:48:25Z</time>
      </trkpt>
      <trkpt lat="39.672090" lon="-0.347260">
        <ele>198.722</ele>
        <time>2019-07-10T15:48:45Z</time>
      </trkpt>
      <trkpt lat="39.671446" lon="-0.346595">
        <ele>189.499</ele>
        <time>2019-07-10T15:49:05Z</time>
      </trkpt>
      <trkpt lat="39.671033" lon="-0.345994">
        <ele>179.035</ele>
        <time>2019-07-10T15:49:25Z</time>
      </trkpt>
      <trkpt lat="39.670356" lon="-0.345501">
        <ele>172.281</ele>
        <time>2019-07-10T15:49:45Z</time>
      </trkpt>
      <trkpt lat="39.670199" lon="-0.345297">
        <ele>170.520</ele>
        <time>2019-07-10T15:50:05Z</time>
      </trkpt>
      <trkpt lat="39.669993" lon="-0.345232">
        <ele>168.520</ele>
        <time>2019-07-10T15:50:25Z</time>
      </trkpt>
      <trkpt lat="39.669679" lon="-0.345393">
        <ele>169.321</ele>
        <time>2019-07-10T15:50:45Z</time>
      </trkpt>
      <trkpt lat="39.669150" lon="-0.345619">
        <ele>160.643</ele>
        <time>2019-07-10T15:51:05Z</time>
      </trkpt>
      <trkpt lat="39.668894" lon="-0.345683">
        <ele>159.564</ele>
        <time>2019-07-10T15:51:25Z</time>
      </trkpt>
      <trkpt lat="39.668548" lon="-0.345941">
        <ele>164.810</ele>
        <time>2019-07-10T15:51:45Z</time>
      </trkpt>
      <trkpt lat="39.668325" lon="-0.346606">
        <ele>167.208</ele>
        <time>2019-07-10T15:52:05Z</time>
      </trkpt>
      <trkpt lat="39.668118" lon="-0.346692">
        <ele>170.997</ele>
        <time>2019-07-10T15:52:25Z</time>
      </trkpt>
      <trkpt lat="39.668135" lon="-0.346799">
        <ele>170.778</ele>
        <time>2019-07-10T13:58:16Z</time>
      </trkpt>
      <trkpt lat="39.668283" lon="-0.348086">
        <ele>173.333</ele>
        <time>2019-07-10T13:58:36Z</time>
      </trkpt>
      <trkpt lat="39.668779" lon="-0.349545">
        <ele>192.126</ele>
        <time>2019-07-10T13:58:56Z</time>
      </trkpt>
      <trkpt lat="39.667920" lon="-0.350146">
        <ele>197.508</ele>
        <time>2019-07-10T13:59:16Z</time>
      </trkpt>
      <trkpt lat="39.667490" lon="-0.350275">
        <ele>193.980</ele>
        <time>2019-07-10T13:59:36Z</time>
      </trkpt>
      <trkpt lat="39.666896" lon="-0.351090">
        <ele>200.535</ele>
        <time>2019-07-10T13:59:56Z</time>
      </trkpt>
      <trkpt lat="39.667193" lon="-0.353107">
        <ele>221.442</ele>
        <time>2019-07-10T14:00:16Z</time>
      </trkpt>
      <trkpt lat="39.667391" lon="-0.353837">
        <ele>229.828</ele>
        <time>2019-07-10T14:00:36Z</time>
      </trkpt>
      <trkpt lat="39.667127" lon="-0.354695">
        <ele>235.435</ele>
        <time>2019-07-10T14:00:56Z</time>
      </trkpt>
      <trkpt lat="39.667325" lon="-0.356283">
        <ele>254.738</ele>
        <time>2019-07-10T14:01:16Z</time>
      </trkpt>
      <trkpt lat="39.666904" lon="-0.357227">
        <ele>271.188</ele>
        <time>2019-07-10T14:01:36Z</time>
      </trkpt>
      <trkpt lat="39.666698" lon="-0.357978">
        <ele>288.560</ele>
        <time>2019-07-10T14:01:56Z</time>
      </trkpt>
      <trkpt lat="39.666508" lon="-0.358590">
        <ele>306.647</ele>
        <time>2019-07-10T14:02:16Z</time>
      </trkpt>
      <trkpt lat="39.666153" lon="-0.359126">
        <ele>327.629</ele>
        <time>2019-07-10T14:02:36Z</time>
      </trkpt>
      <trkpt lat="39.665905" lon="-0.359126">
        <ele>330.121</ele>
        <time>2019-07-10T14:02:56Z</time>
      </trkpt>
      <trkpt lat="39.665574" lon="-0.359566">
        <ele>340.608</ele>
        <time>2019-07-10T14:03:16Z</time>
      </trkpt>
      <trkpt lat="39.665880" lon="-0.359931">
        <ele>354.257</ele>
        <time>2019-07-10T14:03:36Z</time>
      </trkpt>
      <trkpt lat="39.665921" lon="-0.360167">
        <ele>362.692</ele>
        <time>2019-07-10T14:03:56Z</time>
      </trkpt>
      <trkpt lat="39.666351" lon="-0.360543">
        <ele>382.099</ele>
        <time>2019-07-10T14:04:16Z</time>
      </trkpt>
      <trkpt lat="39.666673" lon="-0.360736">
        <ele>385.395</ele>
        <time>2019-07-10T14:04:36Z</time>
      </trkpt>
      <trkpt lat="39.666681" lon="-0.361197">
        <ele>409.022</ele>
        <time>2019-07-10T14:04:56Z</time>
      </trkpt>
      <trkpt lat="39.666632" lon="-0.361873">
        <ele>436.345</ele>
        <time>2019-07-10T14:05:16Z</time>
      </trkpt>
      <trkpt lat="39.667053" lon="-0.362313">
        <ele>435.455</ele>
        <time>2019-07-10T14:05:36Z</time>
      </trkpt>
      <trkpt lat="39.667424" lon="-0.362130">
        <ele>425.397</ele>
        <time>2019-07-10T14:05:56Z</time>
      </trkpt>
      <trkpt lat="39.667796" lon="-0.362281">
        <ele>424.338</ele>
        <time>2019-07-10T14:06:16Z</time>
      </trkpt>
      <trkpt lat="39.667953" lon="-0.362452">
        <ele>428.170</ele>
        <time>2019-07-10T14:06:36Z</time>
      </trkpt>
      <trkpt lat="39.668275" lon="-0.362731">
        <ele>423.317</ele>
        <time>2019-07-10T14:06:56Z</time>
      </trkpt>
      <trkpt lat="39.667821" lon="-0.363665">
        <ele>435.608</ele>
        <time>2019-07-10T14:07:16Z</time>
      </trkpt>
      <trkpt lat="39.667623" lon="-0.364341">
        <ele>434.176</ele>
        <time>2019-07-10T14:07:36Z</time>
      </trkpt>
      <trkpt lat="39.667788" lon="-0.364577">
        <ele>431.561</ele>
        <time>2019-07-10T14:07:56Z</time>
      </trkpt>
      <trkpt lat="39.667986" lon="-0.365639">
        <ele>417.818</ele>
        <time>2019-07-10T14:08:16Z</time>
      </trkpt>
      <trkpt lat="39.668333" lon="-0.365853">
        <ele>412.954</ele>
        <time>2019-07-10T14:08:36Z</time>
      </trkpt>
      <trkpt lat="39.668424" lon="-0.366111">
        <ele>412.371</ele>
        <time>2019-07-10T14:08:56Z</time>
      </trkpt>
      <trkpt lat="39.668391" lon="-0.366797">
        <ele>413.564</ele>
        <time>2019-07-10T14:09:16Z</time>
      </trkpt>
      <trkpt lat="39.668548" lon="-0.367291">
        <ele>410.284</ele>
        <time>2019-07-10T14:09:36Z</time>
      </trkpt>
      <trkpt lat="39.669258" lon="-0.367184">
        <ele>408.416</ele>
        <time>2019-07-10T14:09:56Z</time>
      </trkpt>
      <trkpt lat="39.669109" lon="-0.368278">
        <ele>411.658</ele>
        <time>2019-07-10T14:10:16Z</time>
      </trkpt>
      <trkpt lat="39.669060" lon="-0.370038">
        <ele>418.252</ele>
        <time>2019-07-10T14:10:36Z</time>
      </trkpt>
      <trkpt lat="39.669390" lon="-0.370317">
        <ele>415.817</ele>
        <time>2019-07-10T14:10:56Z</time>
      </trkpt>
      <trkpt lat="39.670232" lon="-0.369995">
        <ele>419.208</ele>
        <time>2019-07-10T14:11:16Z</time>
      </trkpt>
      <trkpt lat="39.670431" lon="-0.369651">
        <ele>411.918</ele>
        <time>2019-07-10T14:11:36Z</time>
      </trkpt>
      <trkpt lat="39.671322" lon="-0.369480">
        <ele>408.543</ele>
        <time>2019-07-10T14:11:56Z</time>
      </trkpt>
      <trkpt lat="39.671273" lon="-0.369930">
        <ele>417.290</ele>
        <time>2019-07-10T14:12:16Z</time>
      </trkpt>
      <trkpt lat="39.671455" lon="-0.370252">
        <ele>414.376</ele>
        <time>2019-07-10T14:12:36Z</time>
      </trkpt>
      <trkpt lat="39.671289" lon="-0.371368">
        <ele>409.673</ele>
        <time>2019-07-10T14:12:56Z</time>
      </trkpt>
      <trkpt lat="39.670943" lon="-0.372012">
        <ele>413.636</ele>
        <time>2019-07-10T14:13:16Z</time>
      </trkpt>
      <trkpt lat="39.671174" lon="-0.372312">
        <ele>403.776</ele>
        <time>2019-07-10T14:13:36Z</time>
      </trkpt>
      <trkpt lat="39.671042" lon="-0.373020">
        <ele>399.938</ele>
        <time>2019-07-10T14:13:56Z</time>
      </trkpt>
      <trkpt lat="39.671339" lon="-0.373492">
        <ele>403.382</ele>
        <time>2019-07-10T14:14:16Z</time>
      </trkpt>
      <trkpt lat="39.671289" lon="-0.373943">
        <ele>408.443</ele>
        <time>2019-07-10T14:14:36Z</time>
      </trkpt>
      <trkpt lat="39.670926" lon="-0.374136">
        <ele>404.117</ele>
        <time>2019-07-10T14:14:56Z</time>
      </trkpt>
      <trkpt lat="39.670530" lon="-0.374823">
        <ele>411.008</ele>
        <time>2019-07-10T14:15:16Z</time>
      </trkpt>
      <trkpt lat="39.670282" lon="-0.375166">
        <ele>411.321</ele>
        <time>2019-07-10T14:15:36Z</time>
      </trkpt>
      <trkpt lat="39.670216" lon="-0.376432">
        <ele>405.936</ele>
        <time>2019-07-10T14:15:56Z</time>
      </trkpt>
      <trkpt lat="39.669605" lon="-0.378342">
        <ele>400.223</ele>
        <time>2019-07-10T14:16:16Z</time>
      </trkpt>
      <trkpt lat="39.669142" lon="-0.378749">
        <ele>395.099</ele>
        <time>2019-07-10T14:16:36Z</time>
      </trkpt>
      <trkpt lat="39.668977" lon="-0.379865">
        <ele>392.546</ele>
        <time>2019-07-10T14:16:56Z</time>
      </trkpt>
      <trkpt lat="39.668894" lon="-0.381088">
        <ele>386.019</ele>
        <time>2019-07-10T14:17:16Z</time>
      </trkpt>
      <trkpt lat="39.668515" lon="-0.381453">
        <ele>375.399</ele>
        <time>2019-07-10T14:17:36Z</time>
      </trkpt>
      <trkpt lat="39.669406" lon="-0.381989">
        <ele>388.081</ele>
        <time>2019-07-10T14:17:56Z</time>
      </trkpt>
      <trkpt lat="39.669918" lon="-0.382226">
        <ele>395.751</ele>
        <time>2019-07-10T14:18:16Z</time>
      </trkpt>
      <trkpt lat="39.670711" lon="-0.382934">
        <ele>409.601</ele>
        <time>2019-07-10T14:18:36Z</time>
      </trkpt>
      <trkpt lat="39.671190" lon="-0.383534">
        <ele>416.811</ele>
        <time>2019-07-10T14:18:56Z</time>
      </trkpt>
      <trkpt lat="39.671785" lon="-0.383878">
        <ele>425.608</ele>
        <time>2019-07-10T14:19:16Z</time>
      </trkpt>
      <trkpt lat="39.672825" lon="-0.384843">
        <ele>427.048</ele>
        <time>2019-07-10T14:19:36Z</time>
      </trkpt>
      <trkpt lat="39.674460" lon="-0.384350">
        <ele>441.583</ele>
        <time>2019-07-10T14:19:56Z</time>
      </trkpt>
      <trkpt lat="39.674725" lon="-0.383449">
        <ele>427.080</ele>
        <time>2019-07-10T14:20:16Z</time>
      </trkpt>
      <trkpt lat="39.674361" lon="-0.381989">
        <ele>428.916</ele>
        <time>2019-07-10T14:20:36Z</time>
      </trkpt>
      <trkpt lat="39.675121" lon="-0.381281">
        <ele>408.823</ele>
        <time>2019-07-10T14:20:56Z</time>
      </trkpt>
      <trkpt lat="39.675798" lon="-0.379779">
        <ele>388.166</ele>
        <time>2019-07-10T14:21:16Z</time>
      </trkpt>
      <trkpt lat="39.675402" lon="-0.378878">
        <ele>388.376</ele>
        <time>2019-07-10T14:21:36Z</time>
      </trkpt>
      <trkpt lat="39.675121" lon="-0.378363">
        <ele>385.178</ele>
        <time>2019-07-10T14:21:56Z</time>
      </trkpt>
      <trkpt lat="39.675154" lon="-0.377591">
        <ele>364.783</ele>
        <time>2019-07-10T14:22:16Z</time>
      </trkpt>
      <trkpt lat="39.675600" lon="-0.378106">
        <ele>362.925</ele>
        <time>2019-07-10T14:22:36Z</time>
      </trkpt>
      <trkpt lat="39.676029" lon="-0.377891">
        <ele>351.817</ele>
        <time>2019-07-10T14:22:56Z</time>
      </trkpt>
      <trkpt lat="39.676095" lon="-0.376775">
        <ele>336.608</ele>
        <time>2019-07-10T14:23:16Z</time>
      </trkpt>
      <trkpt lat="39.676607" lon="-0.377097">
        <ele>332.671</ele>
        <time>2019-07-10T14:23:36Z</time>
      </trkpt>
      <trkpt lat="39.676740" lon="-0.377440">
        <ele>330.946</ele>
        <time>2019-07-10T14:23:56Z</time>
      </trkpt>
      <trkpt lat="39.676673" lon="-0.377891">
        <ele>335.283</ele>
        <time>2019-07-10T14:24:16Z</time>
      </trkpt>
      <trkpt lat="39.677185" lon="-0.378406">
        <ele>318.189</ele>
        <time>2019-07-10T14:24:36Z</time>
      </trkpt>
      <trkpt lat="39.677086" lon="-0.378942">
        <ele>320.266</ele>
        <time>2019-07-10T14:24:56Z</time>
      </trkpt>
      <trkpt lat="39.677285" lon="-0.379694">
        <ele>319.129</ele>
        <time>2019-07-10T14:25:16Z</time>
      </trkpt>
      <trkpt lat="39.677631" lon="-0.380037">
        <ele>322.279</ele>
        <time>2019-07-10T14:25:36Z</time>
      </trkpt>
      <trkpt lat="39.677747" lon="-0.379350">
        <ele>314.061</ele>
        <time>2019-07-10T14:25:56Z</time>
      </trkpt>
      <trkpt lat="39.677664" lon="-0.378921">
        <ele>309.035</ele>
        <time>2019-07-10T14:26:16Z</time>
      </trkpt>
      <trkpt lat="39.678094" lon="-0.378234">
        <ele>308.386</ele>
        <time>2019-07-10T14:26:36Z</time>
      </trkpt>
      <trkpt lat="39.678110" lon="-0.377612">
        <ele>303.614</ele>
        <time>2019-07-10T14:26:56Z</time>
      </trkpt>
      <trkpt lat="39.678308" lon="-0.377162">
        <ele>300.508</ele>
        <time>2019-07-10T14:27:16Z</time>
      </trkpt>
      <trkpt lat="39.678589" lon="-0.376947">
        <ele>302.656</ele>
        <time>2019-07-10T14:27:36Z</time>
      </trkpt>
      <trkpt lat="39.678820" lon="-0.376368">
        <ele>296.271</ele>
        <time>2019-07-10T14:27:56Z</time>
      </trkpt>
      <trkpt lat="39.679646" lon="-0.376453">
        <ele>300.268</ele>
        <time>2019-07-10T14:28:16Z</time>
      </trkpt>
      <trkpt lat="39.679960" lon="-0.376153">
        <ele>290.914</ele>
        <time>2019-07-10T14:28:36Z</time>
      </trkpt>
      <trkpt lat="39.680373" lon="-0.375917">
        <ele>290.971</ele>
        <time>2019-07-10T14:28:56Z</time>
      </trkpt>
      <trkpt lat="39.680482" lon="-0.375751">
        <ele>287.964</ele>
        <time>2019-07-10T14:29:16Z</time>
      </trkpt>
      <trkpt lat="39.680817" lon="-0.375515">
        <ele>285.174</ele>
        <time>2019-07-10T14:29:36Z</time>
      </trkpt>
      <trkpt lat="39.681040" lon="-0.374908">
        <ele>278.376</ele>
        <time>2019-07-10T14:29:56Z</time>
      </trkpt>
      <trkpt lat="39.681281" lon="-0.374568">
        <ele>275.299</ele>
        <time>2019-07-10T14:30:16Z</time>
      </trkpt>
      <trkpt lat="39.681430" lon="-0.374348">
        <ele>271.007</ele>
        <time>2019-07-10T14:30:36Z</time>
      </trkpt>
      <trkpt lat="39.681126" lon="-0.374412">
        <ele>270.127</ele>
        <time>2019-07-10T14:30:56Z</time>
      </trkpt>
      <trkpt lat="39.680845" lon="-0.374407">
        <ele>263.508</ele>
        <time>2019-07-10T14:31:16Z</time>
      </trkpt>
      <trkpt lat="39.680265" lon="-0.374710">
        <ele>261.612</ele>
        <time>2019-07-10T14:31:36Z</time>
      </trkpt>
      <trkpt lat="39.680127" lon="-0.374018">
        <ele>249.797</ele>
        <time>2019-07-10T14:31:56Z</time>
      </trkpt>
      <trkpt lat="39.679896" lon="-0.374265">
        <ele>252.944</ele>
        <time>2019-07-10T14:32:16Z</time>
      </trkpt>
      <trkpt lat="39.679723" lon="-0.374283">
        <ele>255.460</ele>
        <time>2019-07-10T14:32:36Z</time>
      </trkpt>
      <trkpt lat="39.679667" lon="-0.374195">
        <ele>257.317</ele>
        <time>2019-07-10T14:32:56Z</time>
      </trkpt>
      <trkpt lat="39.679764" lon="-0.373937">
        <ele>250.490</ele>
        <time>2019-07-10T14:33:16Z</time>
      </trkpt>
      <trkpt lat="39.679760" lon="-0.373852">
        <ele>249.290</ele>
        <time>2019-07-10T14:33:36Z</time>
      </trkpt>
      <trkpt lat="39.679543" lon="-0.373677">
        <ele>252.762</ele>
        <time>2019-07-10T14:33:56Z</time>
      </trkpt>
      <trkpt lat="39.679341" lon="-0.373468">
        <ele>256.593</ele>
        <time>2019-07-10T14:34:16Z</time>
      </trkpt>
      <trkpt lat="39.679039" lon="-0.373503">
        <ele>265.165</ele>
        <time>2019-07-10T14:34:36Z</time>
      </trkpt>
      <trkpt lat="39.678635" lon="-0.373342">
        <ele>268.021</ele>
        <time>2019-07-10T14:34:56Z</time>
      </trkpt>
      <trkpt lat="39.678057" lon="-0.373728">
        <ele>276.708</ele>
        <time>2019-07-10T14:35:16Z</time>
      </trkpt>
      <trkpt lat="39.677547" lon="-0.373602">
        <ele>278.792</ele>
        <time>2019-07-10T14:35:36Z</time>
      </trkpt>
      <trkpt lat="39.677130" lon="-0.373337">
        <ele>286.047</ele>
        <time>2019-07-10T14:35:56Z</time>
      </trkpt>
      <trkpt lat="39.676960" lon="-0.373237">
        <ele>286.274</ele>
        <time>2019-07-10T14:36:16Z</time>
      </trkpt>
      <trkpt lat="39.676766" lon="-0.373232">
        <ele>284.670</ele>
        <time>2019-07-10T14:36:36Z</time>
      </trkpt>
      <trkpt lat="39.676603" lon="-0.373361">
        <ele>284.227</ele>
        <time>2019-07-10T14:36:56Z</time>
      </trkpt>
      <trkpt lat="39.676283" lon="-0.373417">
        <ele>287.640</ele>
        <time>2019-07-10T14:37:16Z</time>
      </trkpt>
      <trkpt lat="39.676042" lon="-0.373313">
        <ele>287.690</ele>
        <time>2019-07-10T14:37:36Z</time>
      </trkpt>
      <trkpt lat="39.675831" lon="-0.373189">
        <ele>287.192</ele>
        <time>2019-07-10T14:37:56Z</time>
      </trkpt>
      <trkpt lat="39.675670" lon="-0.372940">
        <ele>291.581</ele>
        <time>2019-07-10T14:38:16Z</time>
      </trkpt>
      <trkpt lat="39.675497" lon="-0.372929">
        <ele>295.261</ele>
        <time>2019-07-10T14:38:36Z</time>
      </trkpt>
      <trkpt lat="39.675365" lon="-0.372647">
        <ele>301.617</ele>
        <time>2019-07-10T14:38:56Z</time>
      </trkpt>
      <trkpt lat="39.675065" lon="-0.372095">
        <ele>309.808</ele>
        <time>2019-07-10T14:39:16Z</time>
      </trkpt>
      <trkpt lat="39.674801" lon="-0.371776">
        <ele>311.721</ele>
        <time>2019-07-10T14:39:36Z</time>
      </trkpt>
      <trkpt lat="39.673870" lon="-0.371489">
        <ele>319.986</ele>
        <time>2019-07-10T14:39:56Z</time>
      </trkpt>
      <trkpt lat="39.673610" lon="-0.371454">
        <ele>321.093</ele>
        <time>2019-07-10T14:40:16Z</time>
      </trkpt>
      <trkpt lat="39.673408" lon="-0.371333">
        <ele>323.789</ele>
        <time>2019-07-10T14:40:36Z</time>
      </trkpt>
      <trkpt lat="39.673253" lon="-0.371231">
        <ele>326.916</ele>
        <time>2019-07-10T14:40:56Z</time>
      </trkpt>
      <trkpt lat="39.673133" lon="-0.371196">
        <ele>330.939</ele>
        <time>2019-07-10T14:41:16Z</time>
      </trkpt>
      <trkpt lat="39.673001" lon="-0.370990">
        <ele>341.049</ele>
        <time>2019-07-10T14:41:36Z</time>
      </trkpt>
      <trkpt lat="39.672906" lon="-0.370652">
        <ele>355.451</ele>
        <time>2019-07-10T14:41:56Z</time>
      </trkpt>
      <trkpt lat="39.672799" lon="-0.370555">
        <ele>362.284</ele>
        <time>2019-07-10T14:42:16Z</time>
      </trkpt>
      <trkpt lat="39.672668" lon="-0.370402">
        <ele>370.607</ele>
        <time>2019-07-10T14:42:36Z</time>
      </trkpt>
      <trkpt lat="39.672617" lon="-0.370091">
        <ele>378.817</ele>
        <time>2019-07-10T14:42:56Z</time>
      </trkpt>
      <trkpt lat="39.672388" lon="-0.369922">
        <ele>389.808</ele>
        <time>2019-07-10T14:43:16Z</time>
      </trkpt>
      <trkpt lat="39.672266" lon="-0.369772">
        <ele>394.281</ele>
        <time>2019-07-10T14:43:36Z</time>
      </trkpt>
      <trkpt lat="39.672064" lon="-0.369761">
        <ele>396.566</ele>
        <time>2019-07-10T14:43:56Z</time>
      </trkpt>
      <trkpt lat="39.671694" lon="-0.369659">
        <ele>402.653</ele>
        <time>2019-07-10T14:44:16Z</time>
      </trkpt>
      <trkpt lat="39.671566" lon="-0.369525">
        <ele>404.959</ele>
        <time>2019-07-10T14:44:36Z</time>
      </trkpt>
      <trkpt lat="39.671248" lon="-0.369490">
        <ele>409.976</ele>
        <time>2019-07-10T14:44:56Z</time>
      </trkpt>
      <trkpt lat="39.671116" lon="-0.369426">
        <ele>410.439</ele>
        <time>2019-07-10T14:45:16Z</time>
      </trkpt>
      <trkpt lat="39.670769" lon="-0.369641">
        <ele>415.489</ele>
        <time>2019-07-10T14:45:36Z</time>
      </trkpt>
      <trkpt lat="39.670422" lon="-0.369630">
        <ele>411.151</ele>
        <time>2019-07-10T14:45:56Z</time>
      </trkpt>
      <trkpt lat="39.670125" lon="-0.370123">
        <ele>420.743</ele>
        <time>2019-07-10T14:46:16Z</time>
      </trkpt>
      <trkpt lat="39.669373" lon="-0.370241">
        <ele>416.264</ele>
        <time>2019-07-10T14:46:36Z</time>
      </trkpt>
      <trkpt lat="39.669093" lon="-0.370038">
        <ele>418.210</ele>
        <time>2019-07-10T14:46:56Z</time>
      </trkpt>
      <trkpt lat="39.669035" lon="-0.368418">
        <ele>412.108</ele>
        <time>2019-07-10T14:47:16Z</time>
      </trkpt>
      <trkpt lat="39.669126" lon="-0.367323">
        <ele>411.197</ele>
        <time>2019-07-10T14:47:36Z</time>
      </trkpt>
      <trkpt lat="39.668539" lon="-0.367345">
        <ele>409.782</ele>
        <time>2019-07-10T14:47:56Z</time>
      </trkpt>
      <trkpt lat="39.668349" lon="-0.366819">
        <ele>413.519</ele>
        <time>2019-07-10T14:48:16Z</time>
      </trkpt>
      <trkpt lat="39.668415" lon="-0.366143">
        <ele>412.375</ele>
        <time>2019-07-10T14:48:36Z</time>
      </trkpt>
      <trkpt lat="39.668300" lon="-0.365885">
        <ele>413.082</ele>
        <time>2019-07-10T14:48:56Z</time>
      </trkpt>
      <trkpt lat="39.668003" lon="-0.365757">
        <ele>416.165</ele>
        <time>2019-07-10T14:49:16Z</time>
      </trkpt>
      <trkpt lat="39.667780" lon="-0.364609">
        <ele>431.285</ele>
        <time>2019-07-10T14:49:36Z</time>
      </trkpt>
      <trkpt lat="39.667598" lon="-0.364276">
        <ele>434.597</ele>
        <time>2019-07-10T14:49:56Z</time>
      </trkpt>
      <trkpt lat="39.667672" lon="-0.363922">
        <ele>436.849</ele>
        <time>2019-07-10T14:50:16Z</time>
      </trkpt>
      <trkpt lat="39.668159" lon="-0.363032">
        <ele>426.402</ele>
        <time>2019-07-10T14:50:36Z</time>
      </trkpt>
      <trkpt lat="39.668184" lon="-0.362667">
        <ele>426.222</ele>
        <time>2019-07-10T14:50:56Z</time>
      </trkpt>
      <trkpt lat="39.667961" lon="-0.362388">
        <ele>427.408</ele>
        <time>2019-07-10T14:51:16Z</time>
      </trkpt>
      <trkpt lat="39.667623" lon="-0.362238">
        <ele>423.867</ele>
        <time>2019-07-10T14:51:36Z</time>
      </trkpt>
      <trkpt lat="39.667391" lon="-0.362120">
        <ele>425.932</ele>
        <time>2019-07-10T14:51:56Z</time>
      </trkpt>
      <trkpt lat="39.667102" lon="-0.362302">
        <ele>434.799</ele>
        <time>2019-07-10T14:52:16Z</time>
      </trkpt>
      <trkpt lat="39.666648" lon="-0.361830">
        <ele>435.425</ele>
        <time>2019-07-10T14:52:36Z</time>
      </trkpt>
      <trkpt lat="39.666681" lon="-0.360800">
        <ele>387.492</ele>
        <time>2019-07-10T14:52:56Z</time>
      </trkpt>
      <trkpt lat="39.666574" lon="-0.360543">
        <ele>379.845</ele>
        <time>2019-07-10T14:53:16Z</time>
      </trkpt>
      <trkpt lat="39.666070" lon="-0.360231">
        <ele>368.495</ele>
        <time>2019-07-10T14:53:36Z</time>
      </trkpt>
      <trkpt lat="39.665872" lon="-0.360060">
        <ele>357.997</ele>
        <time>2019-07-10T14:53:56Z</time>
      </trkpt>
      <trkpt lat="39.665839" lon="-0.359802">
        <ele>350.166</ele>
        <time>2019-07-10T14:54:16Z</time>
      </trkpt>
      <trkpt lat="39.665558" lon="-0.359566">
        <ele>340.529</ele>
        <time>2019-07-10T14:54:36Z</time>
      </trkpt>
      <trkpt lat="39.665463" lon="-0.359534">
        <ele>337.921</ele>
        <time>2019-07-10T14:54:56Z</time>
      </trkpt>
      <trkpt lat="39.665351" lon="-0.359633">
        <ele>335.008</ele>
        <time>2019-07-10T14:55:16Z</time>
      </trkpt>
      <trkpt lat="39.665248" lon="-0.359891">
        <ele>332.759</ele>
        <time>2019-07-10T14:55:36Z</time>
      </trkpt>
      <trkpt lat="39.665073" lon="-0.359950">
        <ele>327.314</ele>
        <time>2019-07-10T14:55:56Z</time>
      </trkpt>
      <trkpt lat="39.665044" lon="-0.359848">
        <ele>326.331</ele>
        <time>2019-07-10T14:56:16Z</time>
      </trkpt>
      <trkpt lat="39.664827" lon="-0.359783">
        <ele>319.937</ele>
        <time>2019-07-10T14:56:36Z</time>
      </trkpt>
      <trkpt lat="39.664794" lon="-0.359711">
        <ele>319.174</ele>
        <time>2019-07-10T14:56:56Z</time>
      </trkpt>
      <trkpt lat="39.664707" lon="-0.359655">
        <ele>316.917</ele>
        <time>2019-07-10T14:57:16Z</time>
      </trkpt>
      <trkpt lat="39.664540" lon="-0.359682">
        <ele>310.577</ele>
        <time>2019-07-10T14:57:36Z</time>
      </trkpt>
      <trkpt lat="39.664334" lon="-0.359762">
        <ele>305.559</ele>
        <time>2019-07-10T14:57:56Z</time>
      </trkpt>
      <trkpt lat="39.664232" lon="-0.359775">
        <ele>304.812</ele>
        <time>2019-07-10T14:58:16Z</time>
      </trkpt>
      <trkpt lat="39.664152" lon="-0.359754">
        <ele>304.432</ele>
        <time>2019-07-10T14:58:36Z</time>
      </trkpt>
      <trkpt lat="39.664042" lon="-0.359880">
        <ele>301.205</ele>
        <time>2019-07-10T14:58:56Z</time>
      </trkpt>
      <trkpt lat="39.663923" lon="-0.360028">
        <ele>297.608</ele>
        <time>2019-07-10T14:59:16Z</time>
      </trkpt>
      <trkpt lat="39.663801" lon="-0.360129">
        <ele>296.154</ele>
        <time>2019-07-10T14:59:36Z</time>
      </trkpt>
      <trkpt lat="39.663683" lon="-0.360234">
        <ele>294.319</ele>
        <time>2019-07-10T14:59:56Z</time>
      </trkpt>
      <trkpt lat="39.663450" lon="-0.360484">
        <ele>291.176</ele>
        <time>2019-07-10T15:00:16Z</time>
      </trkpt>
      <trkpt lat="39.663351" lon="-0.360575">
        <ele>289.352</ele>
        <time>2019-07-10T15:00:36Z</time>
      </trkpt>
      <trkpt lat="39.663064" lon="-0.361412">
        <ele>281.939</ele>
        <time>2019-07-10T15:00:56Z</time>
      </trkpt>
      <trkpt lat="39.663328" lon="-0.361819">
        <ele>286.812</ele>
        <time>2019-07-10T15:01:16Z</time>
      </trkpt>
      <trkpt lat="39.663295" lon="-0.362442">
        <ele>286.262</ele>
        <time>2019-07-10T15:01:36Z</time>
      </trkpt>
      <trkpt lat="39.663427" lon="-0.362957">
        <ele>289.414</ele>
        <time>2019-07-10T15:01:56Z</time>
      </trkpt>
      <trkpt lat="39.663609" lon="-0.364523">
        <ele>292.375</ele>
        <time>2019-07-10T15:02:16Z</time>
      </trkpt>
      <trkpt lat="39.663989" lon="-0.364931">
        <ele>298.528</ele>
        <time>2019-07-10T15:02:36Z</time>
      </trkpt>
      <trkpt lat="39.663625" lon="-0.365767">
        <ele>302.720</ele>
        <time>2019-07-10T15:02:56Z</time>
      </trkpt>
      <trkpt lat="39.663229" lon="-0.365467">
        <ele>302.808</ele>
        <time>2019-07-10T15:03:16Z</time>
      </trkpt>
      <trkpt lat="39.662700" lon="-0.364459">
        <ele>298.960</ele>
        <time>2019-07-10T15:03:36Z</time>
      </trkpt>
      <trkpt lat="39.662089" lon="-0.362892">
        <ele>283.835</ele>
        <time>2019-07-10T15:03:56Z</time>
      </trkpt>
      <trkpt lat="39.661825" lon="-0.362549">
        <ele>279.182</ele>
        <time>2019-07-10T15:04:16Z</time>
      </trkpt>
      <trkpt lat="39.661164" lon="-0.362699">
        <ele>280.178</ele>
        <time>2019-07-10T15:04:36Z</time>
      </trkpt>
      <trkpt lat="39.660982" lon="-0.362871">
        <ele>279.495</ele>
        <time>2019-07-10T15:04:56Z</time>
      </trkpt>
      <trkpt lat="39.660487" lon="-0.364072">
        <ele>271.928</ele>
        <time>2019-07-10T15:05:16Z</time>
      </trkpt>
      <trkpt lat="39.660140" lon="-0.364287">
        <ele>259.758</ele>
        <time>2019-07-10T15:05:36Z</time>
      </trkpt>
      <trkpt lat="39.660355" lon="-0.364544">
        <ele>262.590</ele>
        <time>2019-07-10T15:05:56Z</time>
      </trkpt>
      <trkpt lat="39.659793" lon="-0.365360">
        <ele>247.841</ele>
        <time>2019-07-10T15:06:16Z</time>
      </trkpt>
      <trkpt lat="39.659958" lon="-0.365853">
        <ele>249.781</ele>
        <time>2019-07-10T15:06:36Z</time>
      </trkpt>
      <trkpt lat="39.659611" lon="-0.365789">
        <ele>242.409</ele>
        <time>2019-07-10T15:06:56Z</time>
      </trkpt>
      <trkpt lat="39.658967" lon="-0.367570">
        <ele>227.008</ele>
        <time>2019-07-10T15:07:16Z</time>
      </trkpt>
      <trkpt lat="39.658224" lon="-0.367570">
        <ele>220.187</ele>
        <time>2019-07-10T15:07:36Z</time>
      </trkpt>
      <trkpt lat="39.657084" lon="-0.368257">
        <ele>203.982</ele>
        <time>2019-07-10T15:07:56Z</time>
      </trkpt>
      <trkpt lat="39.656522" lon="-0.367870">
        <ele>202.119</ele>
        <time>2019-07-10T15:08:16Z</time>
      </trkpt>
      <trkpt lat="39.655993" lon="-0.366862">
        <ele>199.245</ele>
        <time>2019-07-10T15:08:36Z</time>
      </trkpt>
      <trkpt lat="39.656340" lon="-0.366218">
        <ele>200.882</ele>
        <time>2019-07-10T15:08:56Z</time>
      </trkpt>
      <trkpt lat="39.656473" lon="-0.365360">
        <ele>206.125</ele>
        <time>2019-07-10T15:09:16Z</time>
      </trkpt>
      <trkpt lat="39.656853" lon="-0.364544">
        <ele>211.965</ele>
        <time>2019-07-10T15:09:36Z</time>
      </trkpt>
      <trkpt lat="39.657332" lon="-0.362399">
        <ele>223.917</ele>
        <time>2019-07-10T15:09:56Z</time>
      </trkpt>
      <trkpt lat="39.657513" lon="-0.361733">
        <ele>230.676</ele>
        <time>2019-07-10T15:10:16Z</time>
      </trkpt>
      <trkpt lat="39.657034" lon="-0.359974">
        <ele>248.490</ele>
        <time>2019-07-10T15:10:36Z</time>
      </trkpt>
      <trkpt lat="39.657612" lon="-0.359867">
        <ele>246.819</ele>
        <time>2019-07-10T15:10:56Z</time>
      </trkpt>
      <trkpt lat="39.658108" lon="-0.358901">
        <ele>260.708</ele>
        <time>2019-07-10T15:11:16Z</time>
      </trkpt>
      <trkpt lat="39.658670" lon="-0.357785">
        <ele>271.410</ele>
        <time>2019-07-10T15:11:36Z</time>
      </trkpt>
      <trkpt lat="39.659496" lon="-0.358751">
        <ele>284.045</ele>
        <time>2019-07-10T15:11:56Z</time>
      </trkpt>
      <trkpt lat="39.660454" lon="-0.359159">
        <ele>300.132</ele>
        <time>2019-07-10T15:12:16Z</time>
      </trkpt>
      <trkpt lat="39.660999" lon="-0.358772">
        <ele>309.528</ele>
        <time>2019-07-10T15:12:36Z</time>
      </trkpt>
      <trkpt lat="39.662370" lon="-0.359373">
        <ele>321.355</ele>
        <time>2019-07-10T15:12:56Z</time>
      </trkpt>
      <trkpt lat="39.663724" lon="-0.358601">
        <ele>326.068</ele>
        <time>2019-07-10T15:13:16Z</time>
      </trkpt>
      <trkpt lat="39.664831" lon="-0.358450">
        <ele>337.428</ele>
        <time>2019-07-10T15:13:36Z</time>
      </trkpt>
      <trkpt lat="39.665558" lon="-0.359502">
        <ele>340.240</ele>
        <time>2019-07-10T15:13:56Z</time>
      </trkpt>
      <trkpt lat="39.665971" lon="-0.359030">
        <ele>326.387</ele>
        <time>2019-07-10T15:14:16Z</time>
      </trkpt>
      <trkpt lat="39.666466" lon="-0.358665">
        <ele>309.142</ele>
        <time>2019-07-10T15:14:36Z</time>
      </trkpt>
      <trkpt lat="39.666813" lon="-0.357528">
        <ele>276.226</ele>
        <time>2019-07-10T15:14:56Z</time>
      </trkpt>
      <trkpt lat="39.667391" lon="-0.356369">
        <ele>256.308</ele>
        <time>2019-07-10T15:15:16Z</time>
      </trkpt>
      <trkpt lat="39.667094" lon="-0.354888">
        <ele>237.871</ele>
        <time>2019-07-10T15:15:36Z</time>
      </trkpt>
      <trkpt lat="39.667408" lon="-0.353837">
        <ele>230.296</ele>
        <time>2019-07-10T15:15:56Z</time>
      </trkpt>
      <trkpt lat="39.667210" lon="-0.353343">
        <ele>224.293</ele>
        <time>2019-07-10T15:16:16Z</time>
      </trkpt>
      <trkpt lat="39.667028" lon="-0.352035">
        <ele>214.069</ele>
        <time>2019-07-10T15:16:36Z</time>
      </trkpt>
      <trkpt lat="39.666896" lon="-0.351326">
        <ele>203.076</ele>
        <time>2019-07-10T15:16:56Z</time>
      </trkpt>
      <trkpt lat="39.667243" lon="-0.350468">
        <ele>194.359</ele>
        <time>2019-07-10T15:17:16Z</time>
      </trkpt>
      <trkpt lat="39.667755" lon="-0.350082">
        <ele>194.399</ele>
        <time>2019-07-10T15:17:36Z</time>
      </trkpt>
      <trkpt lat="39.668911" lon="-0.349588">
        <ele>193.471</ele>
        <time>2019-07-10T15:17:56Z</time>
      </trkpt>
      <trkpt lat="39.668366" lon="-0.348580">
        <ele>181.721</ele>
        <time>2019-07-10T15:18:16Z</time>
      </trkpt>
      <trkpt lat="39.668069" lon="-0.346735">
        <ele>171.841</ele>
        <time>2019-07-10T15:18:36Z</time>
      </trkpt>
      <trkpt lat="39.668069" lon="-0.346756">
        <ele>171.881</ele>
        <time>2019-07-10T13:58:25Z</time>
      </trkpt>
      <trkpt lat="39.668201" lon="-0.347958">
        <ele>171.761</ele>
        <time>2019-07-10T13:58:45Z</time>
      </trkpt>
      <trkpt lat="39.668399" lon="-0.349181">
        <ele>188.217</ele>
        <time>2019-07-10T13:59:05Z</time>
      </trkpt>
      <trkpt lat="39.668861" lon="-0.349567">
        <ele>192.708</ele>
        <time>2019-07-10T13:59:25Z</time>
      </trkpt>
      <trkpt lat="39.667788" lon="-0.350275">
        <ele>198.131</ele>
        <time>2019-07-10T13:59:45Z</time>
      </trkpt>
      <trkpt lat="39.667375" lon="-0.350254">
        <ele>192.896</ele>
        <time>2019-07-10T14:00:05Z</time>
      </trkpt>
      <trkpt lat="39.666731" lon="-0.351927">
        <ele>208.353</ele>
        <time>2019-07-10T14:00:25Z</time>
      </trkpt>
      <trkpt lat="39.666351" lon="-0.351713">
        <ele>210.289</ele>
        <time>2019-07-10T14:00:45Z</time>
      </trkpt>
      <trkpt lat="39.665773" lon="-0.351605">
        <ele>211.196</ele>
        <time>2019-07-10T14:01:05Z</time>
      </trkpt>
      <trkpt lat="39.665409" lon="-0.351841">
        <ele>216.389</ele>
        <time>2019-07-10T14:01:25Z</time>
      </trkpt>
      <trkpt lat="39.664980" lon="-0.351648">
        <ele>222.197</ele>
        <time>2019-07-10T14:01:45Z</time>
      </trkpt>
      <trkpt lat="39.664468" lon="-0.351262">
        <ele>224.183</ele>
        <time>2019-07-10T14:02:05Z</time>
      </trkpt>
      <trkpt lat="39.663675" lon="-0.351155">
        <ele>224.568</ele>
        <time>2019-07-10T14:02:25Z</time>
      </trkpt>
      <trkpt lat="39.663163" lon="-0.351048">
        <ele>220.242</ele>
        <time>2019-07-10T14:02:45Z</time>
      </trkpt>
      <trkpt lat="39.662552" lon="-0.351112">
        <ele>218.826</ele>
        <time>2019-07-10T14:03:05Z</time>
      </trkpt>
      <trkpt lat="39.661940" lon="-0.350769">
        <ele>215.308</ele>
        <time>2019-07-10T14:03:25Z</time>
      </trkpt>
      <trkpt lat="39.660619" lon="-0.351090">
        <ele>214.559</ele>
        <time>2019-07-10T14:03:45Z</time>
      </trkpt>
      <trkpt lat="39.660850" lon="-0.351691">
        <ele>220.544</ele>
        <time>2019-07-10T14:04:05Z</time>
      </trkpt>
      <trkpt lat="39.660801" lon="-0.354202">
        <ele>239.571</ele>
        <time>2019-07-10T14:04:25Z</time>
      </trkpt>
      <trkpt lat="39.660850" lon="-0.355146">
        <ele>249.047</ele>
        <time>2019-07-10T14:04:45Z</time>
      </trkpt>
      <trkpt lat="39.660569" lon="-0.355361">
        <ele>245.254</ele>
        <time>2019-07-10T14:05:05Z</time>
      </trkpt>
      <trkpt lat="39.660008" lon="-0.356648">
        <ele>264.687</ele>
        <time>2019-07-10T14:05:25Z</time>
      </trkpt>
      <trkpt lat="39.658637" lon="-0.357442">
        <ele>270.355</ele>
        <time>2019-07-10T14:05:45Z</time>
      </trkpt>
      <trkpt lat="39.658637" lon="-0.358107">
        <ele>269.961</ele>
        <time>2019-07-10T14:06:05Z</time>
      </trkpt>
      <trkpt lat="39.658967" lon="-0.358708">
        <ele>271.015</ele>
        <time>2019-07-10T14:06:25Z</time>
      </trkpt>
      <trkpt lat="39.659397" lon="-0.360231">
        <ele>272.865</ele>
        <time>2019-07-10T14:06:45Z</time>
      </trkpt>
      <trkpt lat="39.660041" lon="-0.360489">
        <ele>278.011</ele>
        <time>2019-07-10T14:07:05Z</time>
      </trkpt>
      <trkpt lat="39.660933" lon="-0.359738">
        <ele>296.108</ele>
        <time>2019-07-10T14:07:25Z</time>
      </trkpt>
      <trkpt lat="39.660966" lon="-0.360618">
        <ele>293.494</ele>
        <time>2019-07-10T14:07:45Z</time>
      </trkpt>
      <trkpt lat="39.661726" lon="-0.361004">
        <ele>285.289</ele>
        <time>2019-07-10T14:08:05Z</time>
      </trkpt>
      <trkpt lat="39.662568" lon="-0.360467">
        <ele>288.586</ele>
        <time>2019-07-10T14:08:25Z</time>
      </trkpt>
      <trkpt lat="39.663411" lon="-0.360618">
        <ele>290.462</ele>
        <time>2019-07-10T14:08:45Z</time>
      </trkpt>
      <trkpt lat="39.663064" lon="-0.361433">
        <ele>281.619</ele>
        <time>2019-07-10T14:09:05Z</time>
      </trkpt>
      <trkpt lat="39.663278" lon="-0.361819">
        <ele>285.292</ele>
        <time>2019-07-10T14:09:25Z</time>
      </trkpt>
      <trkpt lat="39.663212" lon="-0.362635">
        <ele>283.730</ele>
        <time>2019-07-10T14:09:45Z</time>
      </trkpt>
      <trkpt lat="39.663675" lon="-0.364351">
        <ele>293.166</ele>
        <time>2019-07-10T14:10:05Z</time>
      </trkpt>
      <trkpt lat="39.664071" lon="-0.365016">
        <ele>299.815</ele>
        <time>2019-07-10T14:10:25Z</time>
      </trkpt>
      <trkpt lat="39.663741" lon="-0.365918">
        <ele>305.965</ele>
        <time>2019-07-10T14:10:45Z</time>
      </trkpt>
      <trkpt lat="39.663262" lon="-0.365596">
        <ele>303.111</ele>
        <time>2019-07-10T14:11:05Z</time>
      </trkpt>
      <trkpt lat="39.662585" lon="-0.364566">
        <ele>302.408</ele>
        <time>2019-07-10T14:11:25Z</time>
      </trkpt>
      <trkpt lat="39.662238" lon="-0.363450">
        <ele>295.124</ele>
        <time>2019-07-10T14:11:45Z</time>
      </trkpt>
      <trkpt lat="39.662007" lon="-0.362828">
        <ele>283.529</ele>
        <time>2019-07-10T14:12:05Z</time>
      </trkpt>
      <trkpt lat="39.661511" lon="-0.362570">
        <ele>280.976</ele>
        <time>2019-07-10T14:12:25Z</time>
      </trkpt>
      <trkpt lat="39.661065" lon="-0.362828">
        <ele>281.032</ele>
        <time>2019-07-10T14:12:45Z</time>
      </trkpt>
      <trkpt lat="39.660569" lon="-0.363536">
        <ele>274.299</ele>
        <time>2019-07-10T14:13:05Z</time>
      </trkpt>
      <trkpt lat="39.660404" lon="-0.364115">
        <ele>268.752</ele>
        <time>2019-07-10T14:13:25Z</time>
      </trkpt>
      <trkpt lat="39.660206" lon="-0.364265">
        <ele>261.120</ele>
        <time>2019-07-10T14:13:45Z</time>
      </trkpt>
      <trkpt lat="39.660239" lon="-0.364587">
        <ele>258.656</ele>
        <time>2019-07-10T14:14:05Z</time>
      </trkpt>
      <trkpt lat="39.660008" lon="-0.365317">
        <ele>248.075</ele>
        <time>2019-07-10T14:14:25Z</time>
      </trkpt>
      <trkpt lat="39.659859" lon="-0.365746">
        <ele>246.728</ele>
        <time>2019-07-10T14:14:45Z</time>
      </trkpt>
      <trkpt lat="39.659595" lon="-0.365896">
        <ele>241.920</ele>
        <time>2019-07-10T14:15:05Z</time>
      </trkpt>
      <trkpt lat="39.659017" lon="-0.367506">
        <ele>228.608</ele>
        <time>2019-07-10T14:15:25Z</time>
      </trkpt>
      <trkpt lat="39.658290" lon="-0.367613">
        <ele>220.250</ele>
        <time>2019-07-10T14:15:45Z</time>
      </trkpt>
      <trkpt lat="39.657150" lon="-0.368171">
        <ele>205.245</ele>
        <time>2019-07-10T14:16:05Z</time>
      </trkpt>
      <trkpt lat="39.656687" lon="-0.367956">
        <ele>202.592</ele>
        <time>2019-07-10T14:16:25Z</time>
      </trkpt>
      <trkpt lat="39.656506" lon="-0.367484">
        <ele>203.098</ele>
        <time>2019-07-10T14:16:45Z</time>
      </trkpt>
      <trkpt lat="39.655927" lon="-0.366883">
        <ele>199.125</ele>
        <time>2019-07-10T14:17:05Z</time>
      </trkpt>
      <trkpt lat="39.656423" lon="-0.365360">
        <ele>206.568</ele>
        <time>2019-07-10T14:17:25Z</time>
      </trkpt>
      <trkpt lat="39.656869" lon="-0.364480">
        <ele>212.616</ele>
        <time>2019-07-10T14:17:45Z</time>
      </trkpt>
      <trkpt lat="39.657067" lon="-0.363493">
        <ele>220.772</ele>
        <time>2019-07-10T14:18:05Z</time>
      </trkpt>
      <trkpt lat="39.657480" lon="-0.361626">
        <ele>232.946</ele>
        <time>2019-07-10T14:18:25Z</time>
      </trkpt>
      <trkpt lat="39.656985" lon="-0.359910">
        <ele>250.088</ele>
        <time>2019-07-10T14:18:45Z</time>
      </trkpt>
      <trkpt lat="39.657596" lon="-0.359845">
        <ele>247.316</ele>
        <time>2019-07-10T14:19:05Z</time>
      </trkpt>
      <trkpt lat="39.658587" lon="-0.357850">
        <ele>270.808</ele>
        <time>2019-07-10T14:19:25Z</time>
      </trkpt>
      <trkpt lat="39.658785" lon="-0.357099">
        <ele>268.517</ele>
        <time>2019-07-10T14:19:45Z</time>
      </trkpt>
      <trkpt lat="39.660057" lon="-0.356584">
        <ele>263.962</ele>
        <time>2019-07-10T14:20:05Z</time>
      </trkpt>
      <trkpt lat="39.660801" lon="-0.355060">
        <ele>246.739</ele>
        <time>2019-07-10T14:20:25Z</time>
      </trkpt>
      <trkpt lat="39.660751" lon="-0.353751">
        <ele>237.995</ele>
        <time>2019-07-10T14:20:45Z</time>
      </trkpt>
      <trkpt lat="39.660900" lon="-0.351863">
        <ele>222.322</ele>
        <time>2019-07-10T14:21:05Z</time>
      </trkpt>
      <trkpt lat="39.660652" lon="-0.351219">
        <ele>215.835</ele>
        <time>2019-07-10T14:21:25Z</time>
      </trkpt>
      <trkpt lat="39.662056" lon="-0.350683">
        <ele>213.223</ele>
        <time>2019-07-10T14:21:45Z</time>
      </trkpt>
      <trkpt lat="39.662552" lon="-0.351048">
        <ele>217.479</ele>
        <time>2019-07-10T14:22:05Z</time>
      </trkpt>
      <trkpt lat="39.663378" lon="-0.350940">
        <ele>217.526</ele>
        <time>2019-07-10T14:22:25Z</time>
      </trkpt>
      <trkpt lat="39.664418" lon="-0.351198">
        <ele>223.447</ele>
        <time>2019-07-10T14:22:45Z</time>
      </trkpt>
      <trkpt lat="39.665508" lon="-0.351927">
        <ele>214.811</ele>
        <time>2019-07-10T14:23:05Z</time>
      </trkpt>
      <trkpt lat="39.666466" lon="-0.351713">
        <ele>208.608</ele>
        <time>2019-07-10T14:23:25Z</time>
      </trkpt>
      <trkpt lat="39.666747" lon="-0.351949">
        <ele>208.785</ele>
        <time>2019-07-10T14:23:45Z</time>
      </trkpt>
      <trkpt lat="39.667160" lon="-0.350769">
        <ele>197.780</ele>
        <time>2019-07-10T14:24:05Z</time>
      </trkpt>
      <trkpt lat="39.667986" lon="-0.350146">
        <ele>198.347</ele>
        <time>2019-07-10T14:24:25Z</time>
      </trkpt>
      <trkpt lat="39.668795" lon="-0.349674">
        <ele>193.363</ele>
        <time>2019-07-10T14:24:45Z</time>
      </trkpt>
      <trkpt lat="39.668333" lon="-0.349052">
        <ele>187.290</ele>
        <time>2019-07-10T14:25:05Z</time>
      </trkpt>
      <trkpt lat="39.668052" lon="-0.346692">
        <ele>172.153</ele>
        <time>2019-07-10T14:25:25Z</time>
      </trkpt>
    </trkseg>
  </trk>
</gpx>
